EW3712 Weather Reports


Display with metric or nautical units.
time (UTC)temp
F
wind
direction
speed
MPH
gust
MPH
rain 1hr
in
rain 24hr
in
rain mn
in
humidity
%
barometer
mb
20260906230202 78 229 1.0 11.0 0.00 0.00 0.00 27 1017.9
20260906230002 78 229 1.0 11.0 0.00 0.00 0.00 27 1018.1
20260906225903 78 229 1.0 11.0 0.00 0.00 0.00 27 1018.1
20260906225802 78 229 1.0 11.0 0.00 0.00 0.00 27 1018.1
20260906225703 78 204 2.0 11.0 0.00 0.00 0.00 26 1018.0
20260906225602 78 160 2.0 6.0 0.00 0.00 0.00 26 1018.0
20260906225502 78 161 2.0 6.0 0.00 0.00 0.00 26 1018.0
20260906225403 78 160 2.0 6.0 0.00 0.00 0.00 26 1017.9
20260906225306 78 162 2.0 7.0 0.00 0.00 0.00 26 1017.8
20260906225102 78 169 3.0 8.0 0.00 0.00 0.00 25 1017.9
20260906225003 78 171 3.0 8.0 0.00 0.00 0.00 25 1017.8
20260906224902 78 170 3.0 8.0 0.00 0.00 0.00 25 1017.8
20260906224802 78 170 4.0 8.0 0.00 0.00 0.00 25 1017.8
20260906224702 78 168 4.0 8.0 0.00 0.00 0.00 25 1017.8
20260906224602 78 166 4.0 8.0 0.00 0.00 0.00 25 1017.8
20260906224502 78 164 4.0 9.0 0.00 0.00 0.00 25 1017.7
20260906224402 78 165 4.0 9.0 0.00 0.00 0.00 25 1017.8
20260906224302 78 168 4.0 11.0 0.00 0.00 0.00 25 1017.8
20260906224202 78 169 4.0 11.0 0.00 0.00 0.00 25 1017.8
20260906224002 78 170 4.0 11.0 0.00 0.00 0.00 25 1017.7
20260906223902 78 172 4.0 11.0 0.00 0.00 0.00 25 1017.7
20260906223802 78 172 4.0 11.0 0.00 0.00 0.00 25 1017.8
20260906223702 78 173 3.0 11.0 0.00 0.00 0.00 25 1017.8
20260906223602 78 175 3.0 11.0 0.00 0.00 0.00 25 1017.8
20260906223502 78 181 2.0 11.0 0.00 0.00 0.00 25 1017.8
20260906223402 78 182 2.0 11.0 0.00 0.00 0.00 24 1017.7
20260906223302 78 182 2.0 10.0 0.00 0.00 0.00 24 1017.7
20260906223202 79 182 1.0 10.0 0.00 0.00 0.00 24 1017.7
20260906223102 79 190 1.0 9.0 0.00 0.00 0.00 24 1017.7
20260906223002 79 189 1.0 9.0 0.00 0.00 0.00 25 1017.8
20260906222902 79 190 1.0 9.0 0.00 0.00 0.00 24 1017.7
20260906222803 79 204 1.0 8.0 0.00 0.00 0.00 24 1017.7
20260906222702 79 228 1.0 8.0 0.00 0.00 0.00 24 1017.7
20260906222502 79 224 1.0 8.0 0.00 0.00 0.00 24 1017.7
20260906222403 79 225 1.0 8.0 0.00 0.00 0.00 24 1017.6
20260906222305 79 217 1.0 8.0 0.00 0.00 0.00 24 1017.6
20260906222102 79 189 1.0 7.0 0.00 0.00 0.00 24 1017.6
20260906222002 79 189 1.0 7.0 0.00 0.00 0.00 24 1017.6
20260906221902 79 190 0.0 7.0 0.00 0.00 0.00 24 1017.5
20260906221802 79 197 0.0 8.0 0.00 0.00 0.00 24 1017.5
20260906221703 79 197 0.0 8.0 0.00 0.00 0.00 24 1017.5
20260906221602 79 200 0.0 8.0 0.00 0.00 0.00 24 1017.5
20260906221502 79 200 0.0 8.0 0.00 0.00 0.00 25 1017.5
20260906221402 79 0 0.0 8.0 0.00 0.00 0.00 24 1017.5
20260906221302 79 0 0.0 8.0 0.00 0.00 0.00 24 1017.6
20260906221202 79 0 0.0 8.0 0.00 0.00 0.00 24 1017.6
20260906221103 79 0 0.0 8.0 0.00 0.00 0.00 24 1017.6
20260906221002 79 246 0.0 8.0 0.00 0.00 0.00 24 1017.6
20260906220902 79 246 0.0 8.0 0.00 0.00 0.00 25 1017.6
20260906220802 79 0 0.0 0.0 0.00 0.00 0.00 24 1017.5
20260906220702 79 0 0.0 0.0 0.00 0.00 0.00 24 1017.5
20260906220603 79 0 1.0 0.0 0.00 0.00 0.00 25 1017.6
20260906220302 79 206 1.0 6.0 0.00 0.00 0.00 24 1017.5
20260906220202 79 206 2.0 6.0 0.00 0.00 0.00 24 1017.5
20260906220002 79 206 3.0 6.0 0.00 0.00 0.00 24 1017.5
20260906215903 79 193 3.0 7.0 0.00 0.00 0.00 24 1017.5
20260906215802 79 184 4.0 8.0 0.00 0.00 0.00 24 1017.6
20260906215702 79 177 4.0 10.0 0.00 0.00 0.00 24 1017.6
20260906215602 79 177 4.0 10.0 0.00 0.00 0.00 24 1017.6
20260906215502 79 176 4.0 10.0 0.00 0.00 0.00 24 1017.6
20260906215402 79 176 4.0 10.0 0.00 0.00 0.00 24 1017.6
20260906215306 79 177 5.0 10.0 0.00 0.00 0.00 24 1017.6
20260906215202 79 179 5.0 12.0 0.00 0.00 0.00 24 1017.6
20260906215102 79 179 5.0 12.0 0.00 0.00 0.00 24 1017.6
20260906214902 79 177 5.0 12.0 0.00 0.00 0.00 24 1017.6
20260906214702 79 179 5.0 12.0 0.00 0.00 0.00 24 1017.7
20260906214602 79 177 5.0 12.0 0.00 0.00 0.00 23 1017.7
20260906214402 79 179 6.0 12.0 0.00 0.00 0.00 24 1017.8
20260906214303 80 178 6.0 12.0 0.00 0.00 0.00 24 1017.7
20260906214202 80 179 7.0 10.0 0.00 0.00 0.00 24 1017.8
20260906214102 79 182 7.0 16.0 0.00 0.00 0.00 24 1017.8
20260906214003 79 184 8.0 16.0 0.00 0.00 0.00 24 1017.8
20260906213902 79 183 8.0 16.0 0.00 0.00 0.00 24 1017.8
20260906213802 79 182 8.0 16.0 0.00 0.00 0.00 24 1017.6
20260906213703 79 182 8.0 16.0 0.00 0.00 0.00 24 1017.6
20260906213602 79 183 8.0 16.0 0.00 0.00 0.00 24 1017.7
20260906213502 79 183 8.0 16.0 0.00 0.00 0.00 24 1017.7
20260906213402 79 184 8.0 16.0 0.00 0.00 0.00 24 1017.7
20260906213303 79 185 8.0 16.0 0.00 0.00 0.00 24 1017.8
20260906213202 79 185 7.0 16.0 0.00 0.00 0.00 24 1017.7
20260906213102 79 183 7.0 16.0 0.00 0.00 0.00 24 1017.7
20260906213002 79 182 6.0 16.0 0.00 0.00 0.00 24 1017.8
20260906212802 79 181 6.0 16.0 0.00 0.00 0.00 24 1017.8
20260906212702 79 181 5.0 16.0 0.00 0.00 0.00 24 1017.8
20260906212603 79 179 5.0 16.0 0.00 0.00 0.00 24 1017.9
20260906212502 80 179 5.0 16.0 0.00 0.00 0.00 24 1017.9
20260906212402 80 176 5.0 16.0 0.00 0.00 0.00 24 1017.9
20260906212306 80 174 5.0 16.0 0.00 0.00 0.00 24 1017.9
20260906212102 80 174 5.0 10.0 0.00 0.00 0.00 24 1017.9
20260906212002 80 177 6.0 11.0 0.00 0.00 0.00 24 1017.9
20260906211902 80 178 6.0 15.0 0.00 0.00 0.00 24 1017.9
20260906211802 80 178 6.0 15.0 0.00 0.00 0.00 24 1017.9
20260906211702 80 181 6.0 15.0 0.00 0.00 0.00 24 1017.8
20260906211602 80 181 6.0 15.0 0.00 0.00 0.00 24 1017.8
20260906211302 80 178 6.0 15.0 0.00 0.00 0.00 24 1017.9
20260906211203 80 177 6.0 15.0 0.00 0.00 0.00 23 1017.7
20260906211102 80 175 5.0 15.0 0.00 0.00 0.00 23 1017.7
20260906211003 80 174 5.0 15.0 0.00 0.00 0.00 23 1017.7
20260906210902 80 175 5.0 15.0 0.00 0.00 0.00 23 1017.8
20260906210802 80 174 5.0 15.0 0.00 0.00 0.00 23 1017.8
20260906210602 80 179 4.0 15.0 0.00 0.00 0.00 23 1017.7
20260906210302 80 183 4.0 15.0 0.00 0.00 0.00 23 1017.7
20260906210202 80 184 4.0 15.0 0.00 0.00 0.00 23 1017.7
20260906210003 81 182 4.0 14.0 0.00 0.00 0.00 23 1017.8
20260906205802 81 178 4.0 14.0 0.00 0.00 0.00 23 1017.9
20260906205703 81 171 4.0 14.0 0.00 0.00 0.00 23 1017.8
20260906205602 81 173 4.0 14.0 0.00 0.00 0.00 23 1017.9
20260906205403 81 172 3.0 14.0 0.00 0.00 0.00 23 1017.9
20260906205306 81 175 3.0 14.0 0.00 0.00 0.00 23 1017.9
20260906205202 81 181 3.0 14.0 0.00 0.00 0.00 23 1017.9
20260906205103 81 183 3.0 14.0 0.00 0.00 0.00 23 1017.9
20260906205002 81 187 4.0 13.0 0.00 0.00 0.00 23 1017.9
20260906204902 81 188 4.0 10.0 0.00 0.00 0.00 24 1017.9
20260906204802 81 197 4.0 10.0 0.00 0.00 0.00 23 1017.7
20260906204702 80 194 5.0 10.0 0.00 0.00 0.00 24 1017.9
20260906204602 80 194 5.0 10.0 0.00 0.00 0.00 24 1017.9
20260906204402 80 197 6.0 10.0 0.00 0.00 0.00 24 1017.8
20260906204302 80 194 6.0 16.0 0.00 0.00 0.00 24 1017.9
20260906204202 80 186 6.0 17.0 0.00 0.00 0.00 24 1017.9
20260906204102 80 187 6.0 17.0 0.00 0.00 0.00 24 1017.9
20260906204002 80 185 6.0 17.0 0.00 0.00 0.00 24 1017.9
20260906203903 80 185 6.0 17.0 0.00 0.00 0.00 24 1017.9
20260906203702 80 185 6.0 17.0 0.00 0.00 0.00 24 1017.9
20260906203602 80 186 6.0 17.0 0.00 0.00 0.00 24 1017.9
20260906203503 80 188 6.0 17.0 0.00 0.00 0.00 24 1017.9
20260906203402 80 188 5.0 17.0 0.00 0.00 0.00 23 1017.8
20260906203302 81 189 5.0 17.0 0.00 0.00 0.00 23 1018.0
20260906203202 81 200 5.0 15.0 0.00 0.00 0.00 23 1018.0
20260906203102 81 203 5.0 15.0 0.00 0.00 0.00 23 1017.9
20260906203002 81 211 5.0 15.0 0.00 0.00 0.00 23 1018.0
20260906202902 81 213 5.0 15.0 0.00 0.00 0.00 23 1018.1
20260906202803 81 220 4.0 15.0 0.00 0.00 0.00 24 1018.1
20260906202502 80 206 5.0 15.0 0.00 0.00 0.00 24 1018.0
20260906202402 80 202 5.0 15.0 0.00 0.00 0.00 24 1017.9
20260906202306 80 203 5.0 15.0 0.00 0.00 0.00 24 1018.0
20260906202202 80 197 5.0 12.0 0.00 0.00 0.00 24 1018.1
20260906202102 80 201 5.0 12.0 0.00 0.00 0.00 24 1017.9
20260906202002 80 201 4.0 12.0 0.00 0.00 0.00 25 1018.1
20260906201902 80 201 4.0 12.0 0.00 0.00 0.00 24 1018.0
20260906201802 80 204 4.0 12.0 0.00 0.00 0.00 25 1018.2
20260906201502 79 243 4.0 13.0 0.00 0.00 0.00 25 1018.1
20260906201402 79 254 4.0 13.0 0.00 0.00 0.00 25 1018.1
20260906201202 79 251 4.0 13.0 0.00 0.00 0.00 25 1018.1
20260906201102 79 250 4.0 13.0 0.00 0.00 0.00 25 1018.1
20260906201003 79 253 4.0 13.0 0.00 0.00 0.00 25 1018.1
20260906200802 79 248 4.0 13.0 0.00 0.00 0.00 25 1018.1
20260906200703 79 245 4.0 13.0 0.00 0.00 0.00 25 1018.1
20260906200602 79 234 4.0 19.0 0.00 0.00 0.00 25 1018.1
20260906200403 79 232 4.0 19.0 0.00 0.00 0.00 25 1018.2
20260906200302 79 229 4.0 19.0 0.00 0.00 0.00 25 1018.2
20260906200202 79 230 4.0 19.0 0.00 0.00 0.00 25 1018.3
20260906200002 79 228 4.0 19.0 0.00 0.00 0.00 25 1018.4
20260906195903 79 229 5.0 19.0 0.00 0.00 0.00 25 1018.4
20260906195802 79 229 5.0 19.0 0.00 0.00 0.00 25 1018.4
20260906195702 79 230 5.0 19.0 0.00 0.00 0.00 25 1018.4
20260906195602 79 231 6.0 12.0 0.00 0.00 0.00 25 1018.3
20260906195502 79 235 6.0 12.0 0.00 0.00 0.00 25 1018.4
20260906195306 79 236 7.0 12.0 0.00 0.00 0.00 25 1018.4
20260906195202 79 236 7.0 12.0 0.00 0.00 0.00 25 1018.4
20260906195103 79 235 7.0 12.0 0.00 0.00 0.00 25 1018.5
20260906195002 79 239 7.0 12.0 0.00 0.00 0.00 25 1018.5
20260906194803 79 244 8.0 11.0 0.00 0.00 0.00 26 1018.6
20260906194702 79 237 8.0 11.0 0.00 0.00 0.00 26 1018.5
20260906194602 79 243 7.0 11.0 0.00 0.00 0.00 25 1018.6
20260906194502 79 221 7.0 11.0 0.00 0.00 0.00 25 1018.5
20260906194203 79 219 6.0 12.0 0.00 0.00 0.00 25 1018.6
20260906194102 79 217 5.0 17.0 0.00 0.00 0.00 26 1018.8
20260906194003 79 220 5.0 13.0 0.00 0.00 0.00 26 1018.8
20260906193903 79 221 5.0 13.0 0.00 0.00 0.00 25 1018.6
20260906193803 79 198 6.0 13.0 0.00 0.00 0.00 27 1018.8
20260906193702 79 164 6.0 12.0 0.00 0.00 0.00 27 1018.8
20260906193403 78 128 6.0 10.0 0.00 0.00 0.00 28 1018.8
20260906193203 78 123 6.0 10.0 0.00 0.00 0.00 28 1018.8
20260906193103 78 127 6.0 10.0 0.00 0.00 0.00 28 1018.9
20260906193002 78 132 6.0 10.0 0.00 0.00 0.00 28 1018.8
20260906192903 78 141 6.0 11.0 0.00 0.00 0.00 28 1018.8
20260906192803 78 161 6.0 11.0 0.00 0.00 0.00 28 1018.9
20260906192503 79 223 6.0 11.0 0.00 0.00 0.00 27 1018.9
20260906192403 79 231 5.0 11.0 0.00 0.00 0.00 27 1019.0
20260906192306 79 239 5.0 11.0 0.00 0.00 0.00 27 1018.9
20260906192103 79 240 5.0 11.0 0.00 0.00 0.00 26 1019.0
20260906192002 79 238 5.0 11.0 0.00 0.00 0.00 25 1018.9
20260906191903 79 231 4.0 10.0 0.00 0.00 0.00 25 1019.0
20260906191803 79 214 4.0 10.0 0.00 0.00 0.00 25 1019.0
20260906191503 79 88 5.0 10.0 0.00 0.00 0.00 26 1019.1
20260906191403 79 72 5.0 11.0 0.00 0.00 0.00 26 1019.2
20260906191302 79 68 5.0 11.0 0.00 0.00 0.00 28 1019.0
20260906191203 79 64 6.0 11.0 0.00 0.00 0.00 27 1019.2
20260906191003 79 67 6.0 11.0 0.00 0.00 0.00 27 1019.1
20260906190803 79 71 7.0 11.0 0.00 0.00 0.00 28 1019.1
20260906190604 78 74 7.0 11.0 0.00 0.00 0.00 30 1019.2
20260906190504 78 76 7.0 11.0 0.00 0.00 0.00 30 1019.3
20260906190403 78 79 7.0 13.0 0.00 0.00 0.00 29 1019.2
20260906190003 78 79 6.0 13.0 0.00 0.00 0.00 28 1019.3
20260906185903 78 82 6.0 13.0 0.00 0.00 0.00 27 1019.3
20260906185803 78 84 6.0 13.0 0.00 0.00 0.00 28 1019.3
20260906185703 78 86 6.0 13.0 0.00 0.00 0.00 26 1019.2
20260906185603 78 88 5.0 13.0 0.00 0.00 0.00 27 1019.3
20260906185503 78 90 5.0 13.0 0.00 0.00 0.00 27 1019.3
20260906185404 78 93 5.0 12.0 0.00 0.00 0.00 26 1019.2
20260906185306 78 102 5.0 12.0 0.00 0.00 0.00 27 1019.4
20260906185203 78 105 5.0 12.0 0.00 0.00 0.00 27 1019.4
20260906185102 78 102 5.0 12.0 0.00 0.00 0.00 27 1019.5
20260906184903 78 98 4.0 12.0 0.00 0.00 0.00 27 1019.6
20260906184803 78 94 4.0 12.0 0.00 0.00 0.00 27 1019.6
20260906184603 78 94 4.0 9.0 0.00 0.00 0.00 29 1019.5
20260906184403 77 90 4.0 9.0 0.00 0.00 0.00 29 1019.6
20260906184304 77 84 4.0 9.0 0.00 0.00 0.00 29 1019.6
20260906184203 77 87 4.0 9.0 0.00 0.00 0.00 30 1019.6
20260906184103 76 91 5.0 9.0 0.00 0.00 0.00 28 1019.7
20260906184003 76 94 5.0 9.0 0.00 0.00 0.00 29 1019.6
20260906183903 76 96 5.0 9.0 0.00 0.00 0.00 29 1019.7
20260906183703 76 97 5.0 9.0 0.00 0.00 0.00 29 1019.7
20260906183603 76 95 5.0 9.0 0.00 0.00 0.00 30 1019.7
20260906183403 76 96 5.0 8.0 0.00 0.00 0.00 28 1019.7
20260906183303 76 90 5.0 8.0 0.00 0.00 0.00 29 1019.8
20260906183202 76 84 5.0 9.0 0.00 0.00 0.00 29 1019.8
20260906183103 76 79 5.0 9.0 0.00 0.00 0.00 29 1019.7
20260906183003 76 72 5.0 9.0 0.00 0.00 0.00 29 1019.8
20260906182803 76 63 5.0 9.0 0.00 0.00 0.00 30 1019.8
20260906182703 75 61 5.0 9.0 0.00 0.00 0.00 30 1019.5
20260906182306 75 58 5.0 10.0 0.00 0.00 0.00 30 1019.6
20260906182202 75 57 5.0 10.0 0.00 0.00 0.00 30 1019.6
20260906182103 75 53 5.0 10.0 0.00 0.00 0.00 30 1019.6
20260906182003 75 52 5.0 10.0 0.00 0.00 0.00 32 1019.6
20260906181903 75 53 5.0 10.0 0.00 0.00 0.00 30 1019.7
20260906181703 75 60 5.0 10.0 0.00 0.00 0.00 29 1019.8
20260906181603 75 57 5.0 9.0 0.00 0.00 0.00 30 1019.7
20260906181503 75 57 5.0 9.0 0.00 0.00 0.00 29 1019.8
20260906181403 75 60 5.0 9.0 0.00 0.00 0.00 28 1019.7
20260906181302 75 64 5.0 9.0 0.00 0.00 0.00 29 1019.9
20260906181203 75 67 5.0 9.0 0.00 0.00 0.00 29 1020.0
20260906181103 76 70 5.0 9.0 0.00 0.00 0.00 29 1020.3
20260906181003 76 72 5.0 9.0 0.00 0.00 0.00 30 1020.3
20260906180903 76 75 5.0 10.0 0.00 0.00 0.00 30 1020.4
20260906180803 75 79 5.0 10.0 0.00 0.00 0.00 30 1020.0
20260906180703 75 81 5.0 10.0 0.00 0.00 0.00 32 1020.0
20260906180602 75 80 4.0 10.0 0.00 0.00 0.00 31 1020.1
20260906180503 75 78 4.0 10.0 0.00 0.00 0.00 30 1020.2
20260906180302 75 79 4.0 10.0 0.00 0.00 0.00 31 1020.1
20260906180203 74 80 5.0 10.0 0.00 0.00 0.00 31 1020.2
20260906180004 75 84 5.0 10.0 0.00 0.00 0.00 30 1020.3
20260906175903 75 86 5.0 10.0 0.00 0.00 0.00 31 1020.3
20260906175703 74 83 6.0 10.0 0.00 0.00 0.00 29 1020.2
20260906175603 74 84 6.0 10.0 0.00 0.00 0.00 29 1020.2
20260906175503 74 87 6.0 10.0 0.00 0.00 0.00 30 1020.4
20260906175403 74 89 6.0 10.0 0.00 0.00 0.00 30 1020.3
20260906175306 74 91 6.0 10.0 0.00 0.00 0.00 31 1020.4
20260906175203 74 91 6.0 10.0 0.00 0.00 0.00 31 1020.4
20260906175103 74 91 6.0 10.0 0.00 0.00 0.00 30 1020.5
20260906175003 74 91 6.0 10.0 0.00 0.00 0.00 32 1020.4
20260906174902 74 91 6.0 10.0 0.00 0.00 0.00 31 1020.4
20260906174803 74 91 5.0 11.0 0.00 0.00 0.00 31 1020.4
20260906174703 74 92 5.0 11.0 0.00 0.00 0.00 32 1020.5
20260906174603 74 92 5.0 11.0 0.00 0.00 0.00 33 1020.5
20260906174503 73 92 5.0 11.0 0.00 0.00 0.00 32 1020.5
20260906174403 73 90 5.0 11.0 0.00 0.00 0.00 33 1020.5
20260906174203 73 88 5.0 11.0 0.00 0.00 0.00 31 1020.5
20260906174103 73 87 5.0 11.0 0.00 0.00 0.00 31 1020.6
20260906173903 73 86 5.0 11.0 0.00 0.00 0.00 32 1020.6
20260906173803 73 85 5.0 8.0 0.00 0.00 0.00 32 1020.6
20260906173703 73 86 5.0 10.0 0.00 0.00 0.00 32 1020.7
20260906173603 73 86 5.0 10.0 0.00 0.00 0.00 32 1020.7
20260906173503 73 86 5.0 10.0 0.00 0.00 0.00 31 1020.7
20260906173403 73 86 5.0 10.0 0.00 0.00 0.00 32 1020.7
20260906173302 73 84 5.0 10.0 0.00 0.00 0.00 32 1020.7
20260906173203 73 81 5.0 10.0 0.00 0.00 0.00 33 1020.7
20260906173003 73 83 4.0 10.0 0.00 0.00 0.00 32 1020.7
20260906172803 73 82 4.0 10.0 0.00 0.00 0.00 34 1020.7
20260906172603 73 83 4.0 9.0 0.00 0.00 0.00 32 1020.8
20260906172503 73 83 4.0 9.0 0.00 0.00 0.00 32 1020.8
20260906172403 73 83 4.0 9.0 0.00 0.00 0.00 33 1020.8
20260906172305 73 84 4.0 9.0 0.00 0.00 0.00 33 1020.8
20260906172202 73 86 4.0 9.0 0.00 0.00 0.00 33 1020.9
20260906172103 73 87 5.0 9.0 0.00 0.00 0.00 33 1021.0
20260906172002 73 89 5.0 9.0 0.00 0.00 0.00 33 1021.0
20260906171903 73 90 5.0 9.0 0.00 0.00 0.00 32 1021.0
20260906171704 72 94 5.0 9.0 0.00 0.00 0.00 32 1021.1
20260906171603 72 97 5.0 9.0 0.00 0.00 0.00 32 1021.2
20260906171403 72 106 5.0 9.0 0.00 0.00 0.00 31 1021.1
20260906171303 72 108 5.0 9.0 0.00 0.00 0.00 31 1021.1
20260906171203 72 112 5.0 9.0 0.00 0.00 0.00 31 1021.1
20260906170903 72 116 5.0 9.0 0.00 0.00 0.00 32 1021.1
20260906170803 72 119 5.0 9.0 0.00 0.00 0.00 30 1021.1
20260906170702 72 114 5.0 9.0 0.00 0.00 0.00 30 1021.1
20260906170603 72 109 5.0 9.0 0.00 0.00 0.00 30 1021.1
20260906170503 73 104 5.0 9.0 0.00 0.00 0.00 31 1021.1
20260906170303 72 94 5.0 10.0 0.00 0.00 0.00 31 1021.2
20260906170203 72 92 5.0 10.0 0.00 0.00 0.00 32 1021.3
20260906170103 72 90 5.0 10.0 0.00 0.00 0.00 32 1021.1
20260906170003 72 88 5.0 10.0 0.00 0.00 0.00 32 1021.1
20260906165903 72 87 5.0 10.0 0.00 0.00 0.00 32 1021.2
20260906165803 72 86 5.0 10.0 0.00 0.00 0.00 31 1021.1
20260906165703 72 85 5.0 10.0 0.00 0.00 0.00 31 1021.1
20260906165602 72 85 5.0 10.0 0.00 0.00 0.00 31 1021.0
20260906165503 72 82 4.0 10.0 0.00 0.00 0.00 31 1021.0
20260906165403 72 83 4.0 10.0 0.00 0.00 0.00 31 1021.0
20260906165306 72 81 5.0 10.0 0.00 0.00 0.00 32 1021.2
20260906165203 72 82 5.0 10.0 0.00 0.00 0.00 32 1021.1
20260906165103 72 85 5.0 10.0 0.00 0.00 0.00 32 1021.1
20260906164902 72 90 5.0 10.0 0.00 0.00 0.00 32 1021.0
20260906164803 71 91 5.0 10.0 0.00 0.00 0.00 33 1021.0
20260906164703 71 90 5.0 10.0 0.00 0.00 0.00 33 1021.1
20260906164603 71 90 5.0 10.0 0.00 0.00 0.00 33 1021.0
20260906164503 71 92 5.0 10.0 0.00 0.00 0.00 33 1021.0
20260906164403 71 92 5.0 10.0 0.00 0.00 0.00 33 1021.0
20260906164202 71 92 4.0 10.0 0.00 0.00 0.00 34 1021.0
20260906164103 71 90 4.0 9.0 0.00 0.00 0.00 33 1021.1
20260906164003 71 91 4.0 9.0 0.00 0.00 0.00 33 1021.1
20260906163903 71 91 4.0 9.0 0.00 0.00 0.00 33 1021.1
20260906163802 71 90 4.0 9.0 0.00 0.00 0.00 33 1021.2
20260906163703 72 90 4.0 9.0 0.00 0.00 0.00 33 1021.1
20260906163502 72 90 3.0 8.0 0.00 0.00 0.00 32 1021.1
20260906163403 72 89 3.0 8.0 0.00 0.00 0.00 32 1021.1
20260906163303 72 87 3.0 8.0 0.00 0.00 0.00 33 1021.2
20260906163103 72 84 3.0 8.0 0.00 0.00 0.00 33 1021.2
20260906163003 72 78 3.0 8.0 0.00 0.00 0.00 33 1021.2
20260906162903 72 75 3.0 8.0 0.00 0.00 0.00 33 1021.2
20260906162803 72 72 3.0 8.0 0.00 0.00 0.00 33 1021.2
20260906162703 72 70 3.0 8.0 0.00 0.00 0.00 32 1021.0
20260906162603 72 66 4.0 8.0 0.00 0.00 0.00 34 1021.1
20260906162503 72 62 4.0 8.0 0.00 0.00 0.00 34 1021.0
20260906162403 72 60 4.0 5.0 0.00 0.00 0.00 32 1021.0
20260906162306 72 60 4.0 5.0 0.00 0.00 0.00 32 1021.0
20260906162203 71 64 4.0 7.0 0.00 0.00 0.00 32 1021.0
20260906161902 71 80 4.0 8.0 0.00 0.00 0.00 34 1021.1
20260906161803 71 83 3.0 8.0 0.00 0.00 0.00 34 1021.1
20260906161703 71 90 3.0 8.0 0.00 0.00 0.00 34 1021.2
20260906161503 71 97 3.0 8.0 0.00 0.00 0.00 31 1021.0
20260906161403 71 96 3.0 8.0 0.00 0.00 0.00 32 1021.0
20260906161303 71 97 3.0 8.0 0.00 0.00 0.00 31 1021.0
20260906161202 71 98 3.0 8.0 0.00 0.00 0.00 31 1021.0
20260906161103 71 98 3.0 7.0 0.00 0.00 0.00 31 1021.0
20260906161003 71 99 3.0 7.0 0.00 0.00 0.00 31 1021.0
20260906160903 71 99 3.0 6.0 0.00 0.00 0.00 33 1021.1
20260906160803 71 99 3.0 8.0 0.00 0.00 0.00 32 1021.0
20260906160703 71 93 3.0 8.0 0.00 0.00 0.00 31 1021.0
20260906160603 71 90 3.0 8.0 0.00 0.00 0.00 31 1020.9
20260906160502 71 90 3.0 8.0 0.00 0.00 0.00 32 1020.9
20260906160403 71 93 3.0 8.0 0.00 0.00 0.00 32 1020.9
20260906160303 71 94 4.0 8.0 0.00 0.00 0.00 31 1020.9
20260906160202 71 91 4.0 8.0 0.00 0.00 0.00 32 1020.9
20260906160103 70 86 4.0 8.0 0.00 0.00 0.00 32 1020.9
20260906160003 70 80 4.0 8.0 0.00 0.00 0.00 32 1021.0
20260906155903 70 75 4.0 8.0 0.00 0.00 0.00 31 1021.0
20260906155803 70 68 5.0 8.0 0.00 0.00 0.00 32 1020.9
20260906155703 70 69 5.0 7.0 0.00 0.00 0.00 31 1021.0
20260906155603 70 72 5.0 7.0 0.00 0.00 0.00 32 1020.9
20260906155502 70 74 5.0 7.0 0.00 0.00 0.00 31 1020.9
20260906155403 70 72 5.0 8.0 0.00 0.00 0.00 31 1020.9
20260906155306 70 72 5.0 8.0 0.00 0.00 0.00 31 1021.0
20260906155203 70 74 5.0 8.0 0.00 0.00 0.00 30 1021.0
20260906155103 70 77 5.0 8.0 0.00 0.00 0.00 30 1021.0
20260906154903 70 82 5.0 8.0 0.00 0.00 0.00 31 1021.0
20260906154802 70 85 5.0 8.0 0.00 0.00 0.00 30 1021.0
20260906154603 70 87 5.0 8.0 0.00 0.00 0.00 32 1020.9
20260906154503 70 85 5.0 8.0 0.00 0.00 0.00 34 1021.1
20260906154203 70 88 4.0 8.0 0.00 0.00 0.00 34 1021.2
20260906154103 70 86 4.0 8.0 0.00 0.00 0.00 34 1021.2
20260906154003 70 87 4.0 8.0 0.00 0.00 0.00 35 1021.3
20260906153904 70 88 4.0 8.0 0.00 0.00 0.00 34 1021.2
20260906153802 70 85 4.0 8.0 0.00 0.00 0.00 33 1021.2
20260906153703 70 84 4.0 8.0 0.00 0.00 0.00 34 1021.3
20260906153602 70 83 4.0 8.0 0.00 0.00 0.00 33 1021.2
20260906153503 70 82 4.0 8.0 0.00 0.00 0.00 33 1021.2
20260906153304 70 76 4.0 7.0 0.00 0.00 0.00 31 1021.0
20260906153203 70 74 4.0 7.0 0.00 0.00 0.00 30 1021.1
20260906153103 70 72 4.0 7.0 0.00 0.00 0.00 30 1021.1
20260906152902 70 65 3.0 7.0 0.00 0.00 0.00 30 1021.1
20260906152803 70 65 3.0 7.0 0.00 0.00 0.00 32 1021.0
20260906152703 70 65 3.0 6.0 0.00 0.00 0.00 32 1021.1
20260906152603 70 66 3.0 6.0 0.00 0.00 0.00 31 1021.0
20260906152502 70 66 3.0 6.0 0.00 0.00 0.00 31 1021.0
20260906152403 70 65 3.0 6.0 0.00 0.00 0.00 32 1021.1
20260906152306 70 63 3.0 6.0 0.00 0.00 0.00 30 1021.1
20260906152203 70 63 3.0 6.0 0.00 0.00 0.00 32 1021.0
20260906152103 70 62 3.0 6.0 0.00 0.00 0.00 31 1021.1
20260906151803 70 64 3.0 6.0 0.00 0.00 0.00 31 1021.1
20260906151703 70 61 3.0 5.0 0.00 0.00 0.00 31 1021.1
20260906151603 70 58 3.0 5.0 0.00 0.00 0.00 33 1021.1
20260906151504 70 55 3.0 5.0 0.00 0.00 0.00 32 1021.0
20260906151403 70 58 3.0 5.0 0.00 0.00 0.00 31 1021.0
20260906151303 70 60 3.0 6.0 0.00 0.00 0.00 30 1021.0
20260906151203 70 59 3.0 6.0 0.00 0.00 0.00 31 1021.0
20260906151103 70 59 3.0 6.0 0.00 0.00 0.00 30 1021.0
20260906151003 70 59 3.0 6.0 0.00 0.00 0.00 30 1021.0
20260906150902 70 59 3.0 6.0 0.00 0.00 0.00 30 1021.0
20260906150703 70 57 3.0 6.0 0.00 0.00 0.00 32 1020.9
20260906150504 70 57 3.0 6.0 0.00 0.00 0.00 30 1021.0
20260906150403 70 56 3.0 6.0 0.00 0.00 0.00 33 1020.9
20260906150303 70 54 3.0 5.0 0.00 0.00 0.00 31 1021.0
20260906150203 70 54 3.0 5.0 0.00 0.00 0.00 32 1021.0
20260906150103 70 53 3.0 5.0 0.00 0.00 0.00 30 1021.0
20260906150003 70 52 3.0 5.0 0.00 0.00 0.00 30 1021.0
20260906145903 69 50 2.0 5.0 0.00 0.00 0.00 34 1021.0
20260906145802 69 48 2.0 5.0 0.00 0.00 0.00 32 1020.9
20260906145703 69 47 2.0 5.0 0.00 0.00 0.00 30 1020.9
20260906145603 69 46 2.0 5.0 0.00 0.00 0.00 34 1021.1
20260906145503 69 44 2.0 5.0 0.00 0.00 0.00 31 1021.0
20260906145404 70 43 2.0 5.0 0.00 0.00 0.00 31 1020.9
20260906145306 69 41 2.0 5.0 0.00 0.00 0.00 35 1021.1
20260906145203 69 38 2.0 5.0 0.00 0.00 0.00 33 1020.9
20260906145103 69 34 1.0 5.0 0.00 0.00 0.00 35 1021.1
20260906144903 69 29 1.0 5.0 0.00 0.00 0.00 35 1021.0
20260906144703 69 27 1.0 5.0 0.00 0.00 0.00 35 1021.0
20260906144603 69 26 1.0 4.0 0.00 0.00 0.00 35 1020.9
20260906144503 69 25 1.0 3.0 0.00 0.00 0.00 35 1021.0
20260906144403 69 28 1.0 3.0 0.00 0.00 0.00 33 1020.9
20260906144303 69 30 1.0 3.0 0.00 0.00 0.00 37 1021.0
20260906144202 69 33 1.0 3.0 0.00 0.00 0.00 36 1021.1
20260906143904 69 45 1.0 3.0 0.00 0.00 0.00 37 1021.0
20260906143803 69 51 1.0 3.0 0.00 0.00 0.00 38 1021.0
20260906143703 69 56 1.0 3.0 0.00 0.00 0.00 37 1021.0
20260906143603 69 61 1.0 3.0 0.00 0.00 0.00 37 1021.0
20260906143503 69 61 1.0 3.0 0.00 0.00 0.00 36 1020.9
20260906143403 68 65 0.0 3.0 0.00 0.00 0.00 37 1021.1
20260906143303 68 66 0.0 3.0 0.00 0.00 0.00 37 1021.1
20260906143203 68 66 0.0 3.0 0.00 0.00 0.00 37 1021.1
20260906143103 68 66 0.0 3.0 0.00 0.00 0.00 38 1021.1
20260906143003 68 66 0.0 3.0 0.00 0.00 0.00 36 1021.0
20260906142903 68 0 0.0 3.0 0.00 0.00 0.00 36 1021.0
20260906142803 68 0 0.0 3.0 0.00 0.00 0.00 37 1021.1
20260906142602 68 0 0.0 1.0 0.00 0.00 0.00 37 1021.1
20260906142503 68 0 0.0 1.0 0.00 0.00 0.00 38 1021.1
20260906142403 68 0 0.0 1.0 0.00 0.00 0.00 40 1021.1
20260906142306 67 0 0.0 1.0 0.00 0.00 0.00 39 1021.2
20260906142203 67 0 0.0 1.0 0.00 0.00 0.00 39 1021.1
20260906142103 67 0 0.0 1.0 0.00 0.00 0.00 39 1021.1
20260906142004 66 0 0.0 1.0 0.00 0.00 0.00 40 1021.1
20260906141903 66 0 0.0 1.0 0.00 0.00 0.00 39 1021.0
20260906141804 66 0 0.0 1.0 0.00 0.00 0.00 39 1021.1
20260906141703 66 0 0.0 1.0 0.00 0.00 0.00 38 1021.0
20260906141603 66 0 0.0 1.0 0.00 0.00 0.00 38 1021.0
20260906141503 66 0 0.0 1.0 0.00 0.00 0.00 38 1021.0
20260906141403 67 0 0.0 1.0 0.00 0.00 0.00 37 1020.9
20260906141302 67 0 0.0 1.0 0.00 0.00 0.00 37 1020.9
20260906141203 67 0 0.0 0.0 0.00 0.00 0.00 37 1021.1
20260906141103 67 0 0.0 0.0 0.00 0.00 0.00 36 1020.9
20260906141003 67 0 0.0 0.0 0.00 0.00 0.00 36 1020.9
20260906140903 67 0 0.0 0.0 0.00 0.00 0.00 36 1020.9
20260906140803 67 0 0.0 0.0 0.00 0.00 0.00 35 1020.9
20260906140703 67 0 0.0 0.0 0.00 0.00 0.00 35 1020.9
20260906140603 66 0 0.0 0.0 0.00 0.00 0.00 37 1020.8
20260906140503 66 0 0.0 0.0 0.00 0.00 0.00 38 1021.0
20260906140403 66 0 0.0 0.0 0.00 0.00 0.00 40 1021.1
20260906140304 66 0 0.0 0.0 0.00 0.00 0.00 40 1021.1
20260906140203 66 0 0.0 0.0 0.00 0.00 0.00 40 1021.1
20260906140002 66 0 0.0 0.0 0.00 0.00 0.00 39 1021.0
20260906135903 66 0 0.0 0.0 0.00 0.00 0.00 40 1021.1
20260906135703 66 0 0.0 0.0 0.00 0.00 0.00 38 1021.0
20260906135603 65 0 0.0 0.0 0.00 0.00 0.00 38 1021.0
20260906135503 65 0 0.0 0.0 0.00 0.00 0.00 38 1021.1
20260906135403 64 0 0.0 0.0 0.00 0.00 0.00 45 1021.2
20260906135305 64 0 0.0 0.0 0.00 0.00 0.00 45 1021.2
20260906135202 63 0 0.0 0.0 0.00 0.00 0.00 44 1021.3
20260906135003 63 0 0.0 0.0 0.00 0.00 0.00 43 1021.2
20260906134903 63 0 0.0 0.0 0.00 0.00 0.00 44 1021.1
20260906134703 62 0 0.0 0.0 0.00 0.00 0.00 44 1021.2
20260906134603 62 0 0.0 1.0 0.00 0.00 0.00 43 1021.1
20260906134503 62 0 0.0 1.0 0.00 0.00 0.00 47 1021.3
20260906134403 62 0 0.0 1.0 0.00 0.00 0.00 45 1021.2
20260906134303 61 0 0.0 1.0 0.00 0.00 0.00 43 1020.6
20260906134203 61 0 0.0 1.0 0.00 0.00 0.00 40 1020.6
20260906134103 61 0 0.0 1.0 0.00 0.00 0.00 40 1020.7
20260906134003 61 0 0.0 1.0 0.00 0.00 0.00 40 1020.6
20260906133903 61 0 0.0 1.0 0.00 0.00 0.00 41 1020.7
20260906133803 61 0 0.0 1.0 0.00 0.00 0.00 42 1020.6
20260906133603 61 259 0.0 1.0 0.00 0.00 0.00 41 1020.6
20260906133503 60 259 0.0 1.0 0.00 0.00 0.00 41 1020.6
20260906133403 60 259 0.0 1.0 0.00 0.00 0.00 40 1020.5
20260906133303 60 259 0.0 1.0 0.00 0.00 0.00 41 1020.5
20260906133203 60 259 0.0 1.0 0.00 0.00 0.00 42 1020.6
20260906133103 60 262 1.0 1.0 0.00 0.00 0.00 42 1020.5
20260906133004 60 261 1.0 1.0 0.00 0.00 0.00 43 1020.6
20260906132903 60 258 1.0 1.0 0.00 0.00 0.00 42 1020.5
20260906132703 60 242 1.0 2.0 0.00 0.00 0.00 43 1020.5
20260906132504 59 234 1.0 2.0 0.00 0.00 0.00 43 1020.4
20260906132403 59 234 1.0 2.0 0.00 0.00 0.00 43 1020.3
20260906132306 59 234 1.0 2.0 0.00 0.00 0.00 43 1020.3
20260906132203 58 236 1.0 2.0 0.00 0.00 0.00 44 1020.4
20260906132103 58 233 1.0 2.0 0.00 0.00 0.00 44 1020.3
20260906132003 58 235 1.0 2.0 0.00 0.00 0.00 44 1020.3
20260906131803 58 245 1.0 2.0 0.00 0.00 0.00 44 1020.3
20260906131603 58 265 1.0 2.0 0.00 0.00 0.00 45 1020.4
20260906131503 58 274 1.0 1.0 0.00 0.00 0.00 43 1020.3
20260906131203 58 266 1.0 3.0 0.00 0.00 0.00 43 1020.2
20260906131003 58 260 1.0 3.0 0.00 0.00 0.00 43 1020.2
20260906130902 57 257 1.0 3.0 0.00 0.00 0.00 44 1020.2
20260906130703 57 254 1.0 3.0 0.00 0.00 0.00 45 1020.2
20260906130603 57 254 1.0 3.0 0.00 0.00 0.00 44 1020.2
20260906130503 57 252 1.0 3.0 0.00 0.00 0.00 46 1020.2
20260906130403 57 248 1.0 3.0 0.00 0.00 0.00 45 1020.1
20260906130303 57 245 1.0 3.0 0.00 0.00 0.00 45 1020.1
20260906130203 57 243 1.0 3.0 0.00 0.00 0.00 45 1020.1
20260906130103 57 241 1.0 1.0 0.00 0.00 0.00 45 1020.1
20260906125903 56 251 1.0 1.0 0.00 0.00 0.00 45 1020.0
20260906125703 56 259 1.0 1.0 0.00 0.00 0.00 46 1019.9
20260906125603 56 259 1.0 2.0 0.00 0.00 0.00 47 1019.9
20260906125503 56 262 1.0 2.0 0.00 0.00 0.00 47 1020.0
20260906125403 57 267 1.0 2.0 0.00 0.00 0.00 46 1020.3
20260906125306 57 270 1.0 2.0 0.00 0.00 0.00 45 1020.3
20260906125203 56 270 1.0 2.0 0.00 0.00 0.00 44 1020.2
20260906125103 56 269 1.0 2.0 0.00 0.00 0.00 45 1019.8
20260906125003 56 268 1.0 2.0 0.00 0.00 0.00 45 1019.8
20260906124903 56 264 1.0 2.0 0.00 0.00 0.00 45 1019.9
20260906124803 56 261 1.0 2.0 0.00 0.00 0.00 46 1019.9
20260906124703 56 260 1.0 2.0 0.00 0.00 0.00 46 1020.2
20260906124603 56 257 1.0 2.0 0.00 0.00 0.00 46 1020.3
20260906124503 56 256 1.0 2.0 0.00 0.00 0.00 45 1020.3
20260906124403 56 254 1.0 2.0 0.00 0.00 0.00 45 1020.3
20260906124303 56 253 1.0 2.0 0.00 0.00 0.00 46 1020.3
20260906124203 56 252 1.0 2.0 0.00 0.00 0.00 45 1020.2
20260906124103 56 252 1.0 2.0 0.00 0.00 0.00 45 1020.3
20260906123903 57 250 1.0 2.0 0.00 0.00 0.00 45 1020.3
20260906123704 57 254 1.0 2.0 0.00 0.00 0.00 45 1020.3
20260906123603 57 261 1.0 2.0 0.00 0.00 0.00 46 1020.3
20260906123503 57 259 1.0 2.0 0.00 0.00 0.00 45 1020.3
20260906123402 57 261 1.0 2.0 0.00 0.00 0.00 45 1020.3
20260906123303 57 261 1.0 2.0 0.00 0.00 0.00 45 1020.3
20260906123203 57 261 1.0 2.0 0.00 0.00 0.00 45 1020.2
20260906123103 57 261 1.0 2.0 0.00 0.00 0.00 45 1020.2
20260906123003 57 261 1.0 2.0 0.00 0.00 0.00 45 1020.2
20260906122703 56 259 1.0 2.0 0.00 0.00 0.00 45 1020.2
20260906122603 56 260 1.0 2.0 0.00 0.00 0.00 45 1020.1
20260906122503 56 263 1.0 2.0 0.00 0.00 0.00 45 1020.1
20260906122403 56 264 1.0 2.0 0.00 0.00 0.00 45 1019.7
20260906122306 56 265 1.0 2.0 0.00 0.00 0.00 45 1020.1
20260906122003 56 257 1.0 2.0 0.00 0.00 0.00 46 1020.1
20260906121903 56 252 1.0 3.0 0.00 0.00 0.00 45 1019.7
20260906121803 56 249 1.0 3.0 0.00 0.00 0.00 45 1019.7
20260906121703 56 249 1.0 3.0 0.00 0.00 0.00 46 1019.6
20260906121604 56 245 1.0 3.0 0.00 0.00 0.00 45 1019.6
20260906121503 56 243 1.0 3.0 0.00 0.00 0.00 46 1019.6
20260906121303 56 236 0.0 3.0 0.00 0.00 0.00 46 1019.6
20260906121203 56 233 0.0 3.0 0.00 0.00 0.00 46 1019.5
20260906121103 56 233 0.0 3.0 0.00 0.00 0.00 46 1019.6
20260906121003 56 234 0.0 3.0 0.00 0.00 0.00 46 1019.9
20260906120903 57 246 0.0 2.0 0.00 0.00 0.00 45 1019.9
20260906120803 57 259 0.0 1.0 0.00 0.00 0.00 45 1019.9
20260906120602 56 249 0.0 1.0 0.00 0.00 0.00 45 1019.5
20260906120403 56 250 1.0 1.0 0.00 0.00 0.00 45 1019.6
20260906120203 56 252 1.0 1.0 0.00 0.00 0.00 45 1019.9
20260906115903 56 265 1.0 2.0 0.00 0.00 0.00 45 1019.9
20260906115804 56 270 1.0 2.0 0.00 0.00 0.00 45 1019.9
20260906115703 56 274 1.0 2.0 0.00 0.00 0.00 45 1020.0
20260906115603 56 281 1.0 2.0 0.00 0.00 0.00 45 1019.9
20260906115403 56 287 1.0 3.0 0.00 0.00 0.00 45 1020.0
20260906115306 56 288 1.0 3.0 0.00 0.00 0.00 46 1019.9
20260906115202 56 287 1.0 3.0 0.00 0.00 0.00 45 1019.9
20260906115103 56 288 1.0 3.0 0.00 0.00 0.00 46 1019.9
20260906115003 56 289 0.0 3.0 0.00 0.00 0.00 46 1019.9
20260906114903 56 290 0.0 3.0 0.00 0.00 0.00 46 1019.9
20260906114803 56 291 0.0 3.0 0.00 0.00 0.00 46 1019.9
20260906114703 56 292 0.0 3.0 0.00 0.00 0.00 46 1019.9
20260906114503 56 289 0.0 3.0 0.00 0.00 0.00 45 1019.9
20260906114403 56 282 0.0 2.0 0.00 0.00 0.00 45 1019.9
20260906114303 56 270 0.0 1.0 0.00 0.00 0.00 46 1020.0
20260906114204 56 0 0.0 0.0 0.00 0.00 0.00 46 1020.0
20260906114103 57 0 1.0 0.0 0.00 0.00 0.00 46 1019.9
20260906114003 57 263 1.0 1.0 0.00 0.00 0.00 46 1019.9
20260906113903 57 263 1.0 2.0 0.00 0.00 0.00 45 1019.9
20260906113803 57 263 1.0 2.0 0.00 0.00 0.00 45 1019.9
20260906113703 57 261 1.0 2.0 0.00 0.00 0.00 45 1019.9
20260906113603 57 260 1.0 2.0 0.00 0.00 0.00 45 1019.9
20260906113503 57 259 1.0 2.0 0.00 0.00 0.00 45 1019.9
20260906113303 57 260 1.0 2.0 0.00 0.00 0.00 45 1019.9
20260906113203 57 258 1.0 3.0 0.00 0.00 0.00 44 1019.8
20260906113103 58 257 1.0 3.0 0.00 0.00 0.00 44 1019.9
20260906112903 58 256 1.0 3.0 0.00 0.00 0.00 44 1019.9
20260906112803 58 254 1.0 3.0 0.00 0.00 0.00 44 1019.9
20260906112703 58 254 1.0 3.0 0.00 0.00 0.00 44 1019.9
20260906112603 58 254 1.0 3.0 0.00 0.00 0.00 44 1019.9
20260906112503 58 257 1.0 3.0 0.00 0.00 0.00 44 1019.9
20260906112403 58 260 1.0 3.0 0.00 0.00 0.00 43 1019.9
20260906112203 58 262 1.0 2.0 0.00 0.00 0.00 43 1019.8
20260906112003 58 263 1.0 2.0 0.00 0.00 0.00 44 1019.9
20260906111903 58 265 1.0 2.0 0.00 0.00 0.00 44 1019.9
20260906111803 58 266 1.0 2.0 0.00 0.00 0.00 44 1019.9
20260906111603 58 269 1.0 2.0 0.00 0.00 0.00 43 1019.9
20260906111503 58 270 1.0 2.0 0.00 0.00 0.00 43 1019.8
20260906111403 58 270 1.0 2.0 0.00 0.00 0.00 42 1019.9
20260906111303 58 270 1.0 2.0 0.00 0.00 0.00 42 1019.9
20260906111003 58 278 1.0 2.0 0.00 0.00 0.00 44 1019.9
20260906110803 58 278 1.0 2.0 0.00 0.00 0.00 43 1019.9
20260906110703 58 275 1.0 2.0 0.00 0.00 0.00 42 1019.8
20260906110603 58 272 1.0 2.0 0.00 0.00 0.00 42 1019.8
20260906110503 58 270 1.0 2.0 0.00 0.00 0.00 42 1019.8
20260906110403 58 269 1.0 2.0 0.00 0.00 0.00 43 1019.9
20260906110303 58 267 1.0 2.0 0.00 0.00 0.00 43 1019.8
20260906110103 58 266 1.0 2.0 0.00 0.00 0.00 42 1019.8
20260906110003 58 266 1.0 2.0 0.00 0.00 0.00 43 1019.8
20260906105903 58 264 1.0 2.0 0.00 0.00 0.00 43 1019.8
20260906105803 58 262 1.0 2.0 0.00 0.00 0.00 43 1019.8
20260906105703 58 260 1.0 2.0 0.00 0.00 0.00 44 1019.8
20260906105603 58 257 1.0 2.0 0.00 0.00 0.00 44 1019.8
20260906105503 58 253 1.0 2.0 0.00 0.00 0.00 44 1019.8
20260906105404 58 248 1.0 2.0 0.00 0.00 0.00 44 1019.8
20260906105203 59 243 1.0 2.0 0.00 0.00 0.00 42 1019.8
20260906105103 59 243 1.0 2.0 0.00 0.00 0.00 42 1019.8
20260906105003 58 246 1.0 2.0 0.00 0.00 0.00 42 1019.8
20260906104903 58 254 1.0 2.0 0.00 0.00 0.00 41 1019.8
20260906104803 58 260 1.0 2.0 0.00 0.00 0.00 42 1019.8
20260906104704 58 263 1.0 3.0 0.00 0.00 0.00 44 1019.8
20260906104603 58 264 1.0 3.0 0.00 0.00 0.00 44 1019.8
20260906104503 58 265 1.0 3.0 0.00 0.00 0.00 44 1019.8
20260906104403 58 264 1.0 3.0 0.00 0.00 0.00 43 1019.8
20260906104203 58 263 1.0 3.0 0.00 0.00 0.00 44 1019.7
20260906104103 58 263 1.0 3.0 0.00 0.00 0.00 42 1019.7
20260906104004 58 263 1.0 3.0 0.00 0.00 0.00 43 1019.7
20260906103903 58 261 1.0 3.0 0.00 0.00 0.00 43 1019.6
20260906103703 58 255 2.0 3.0 0.00 0.00 0.00 43 1019.7
20260906103603 58 252 2.0 3.0 0.00 0.00 0.00 43 1019.7
20260906103503 58 250 2.0 3.0 0.00 0.00 0.00 43 1019.7
20260906103303 58 249 2.0 3.0 0.00 0.00 0.00 43 1019.7
20260906103203 59 248 1.0 3.0 0.00 0.00 0.00 43 1019.7
20260906103103 59 246 1.0 3.0 0.00 0.00 0.00 42 1019.7
20260906103003 59 245 1.0 3.0 0.00 0.00 0.00 42 1019.7
20260906102903 58 244 1.0 3.0 0.00 0.00 0.00 42 1019.6
20260906102703 58 244 1.0 3.0 0.00 0.00 0.00 42 1019.6
20260906102603 58 244 1.0 3.0 0.00 0.00 0.00 43 1019.6
20260906102503 58 247 1.0 3.0 0.00 0.00 0.00 43 1019.6
20260906102403 58 249 1.0 3.0 0.00 0.00 0.00 43 1019.8
20260906102306 58 251 1.0 3.0 0.00 0.00 0.00 42 1019.7
20260906102203 58 252 1.0 3.0 0.00 0.00 0.00 42 1019.7
20260906102103 58 255 1.0 3.0 0.00 0.00 0.00 42 1019.7
20260906102003 59 257 1.0 3.0 0.00 0.00 0.00 42 1019.7
20260906101903 59 261 1.0 2.0 0.00 0.00 0.00 42 1019.7
20260906101803 59 262 1.0 2.0 0.00 0.00 0.00 42 1019.6
20260906101703 59 262 1.0 2.0 0.00 0.00 0.00 41 1019.6
20260906101603 59 262 1.0 2.0 0.00 0.00 0.00 41 1019.7
20260906101503 59 261 1.0 2.0 0.00 0.00 0.00 41 1019.6
20260906101403 59 262 1.0 2.0 0.00 0.00 0.00 41 1019.6
20260906101302 59 263 1.0 1.0 0.00 0.00 0.00 41 1019.6
20260906101203 59 264 1.0 1.0 0.00 0.00 0.00 41 1019.6
20260906101103 59 266 1.0 1.0 0.00 0.00 0.00 41 1019.6
20260906101003 59 269 1.0 1.0 0.00 0.00 0.00 41 1019.7
20260906100903 59 269 1.0 1.0 0.00 0.00 0.00 40 1019.7
20260906100803 59 267 1.0 1.0 0.00 0.00 0.00 40 1019.7
20260906100603 59 263 1.0 2.0 0.00 0.00 0.00 39 1019.7
20260906100503 59 261 1.0 2.0 0.00 0.00 0.00 40 1019.8
20260906100403 59 260 1.0 2.0 0.00 0.00 0.00 40 1019.7
20260906100303 59 261 1.0 2.0 0.00 0.00 0.00 40 1019.7
20260906100203 59 263 1.0 2.0 0.00 0.00 0.00 40 1019.7
20260906100103 59 264 1.0 2.0 0.00 0.00 0.00 42 1019.6
20260906100003 59 265 1.0 2.0 0.00 0.00 0.00 42 1019.7
20260906095803 59 265 1.0 2.0 0.00 0.00 0.00 40 1019.6
20260906095703 59 264 1.0 2.0 0.00 0.00 0.00 42 1019.6
20260906095603 59 264 1.0 2.0 0.00 0.00 0.00 41 1019.6
20260906095504 59 263 1.0 2.0 0.00 0.00 0.00 41 1019.7
20260906095403 59 263 1.0 2.0 0.00 0.00 0.00 39 1019.6
20260906095306 59 262 1.0 2.0 0.00 0.00 0.00 39 1019.7
20260906095202 59 259 1.0 2.0 0.00 0.00 0.00 40 1019.6
20260906095103 59 257 1.0 2.0 0.00 0.00 0.00 41 1019.7
20260906095003 59 255 1.0 2.0 0.00 0.00 0.00 41 1019.6
20260906094903 59 255 1.0 2.0 0.00 0.00 0.00 41 1019.6
20260906094803 59 255 1.0 2.0 0.00 0.00 0.00 41 1019.6
20260906094703 59 255 1.0 2.0 0.00 0.00 0.00 41 1019.6
20260906094504 59 263 1.0 2.0 0.00 0.00 0.00 40 1019.7
20260906094403 59 267 1.0 2.0 0.00 0.00 0.00 40 1019.6
20260906094303 59 270 1.0 2.0 0.00 0.00 0.00 40 1019.6
20260906094203 59 273 2.0 3.0 0.00 0.00 0.00 40 1019.6
20260906094103 59 276 2.0 3.0 0.00 0.00 0.00 40 1019.6
20260906093903 59 272 2.0 3.0 0.00 0.00 0.00 40 1019.6
20260906093803 59 270 2.0 3.0 0.00 0.00 0.00 41 1019.6
20260906093603 59 261 1.0 4.0 0.00 0.00 0.00 41 1019.6
20260906093403 59 254 1.0 4.0 0.00 0.00 0.00 40 1019.5
20260906093303 59 252 1.0 4.0 0.00 0.00 0.00 40 1019.5
20260906093203 59 248 1.0 4.0 0.00 0.00 0.00 40 1019.5
20260906093004 58 241 1.0 4.0 0.00 0.00 0.00 41 1019.5
20260906092803 58 243 1.0 4.0 0.00 0.00 0.00 42 1019.5
20260906092703 58 254 1.0 3.0 0.00 0.00 0.00 42 1019.5
20260906092503 59 272 1.0 2.0 0.00 0.00 0.00 42 1019.4
20260906092403 59 275 1.0 2.0 0.00 0.00 0.00 42 1019.5
20260906092306 59 273 1.0 2.0 0.00 0.00 0.00 41 1019.4
20260906092203 59 271 1.0 2.0 0.00 0.00 0.00 42 1019.5
20260906092103 59 269 1.0 2.0 0.00 0.00 0.00 40 1019.5
20260906092003 59 266 1.0 2.0 0.00 0.00 0.00 39 1019.5
20260906091903 59 264 1.0 2.0 0.00 0.00 0.00 41 1019.4
20260906091803 59 262 1.0 2.0 0.00 0.00 0.00 42 1019.4
20260906091703 59 258 1.0 2.0 0.00 0.00 0.00 42 1019.4
20260906091603 59 257 1.0 2.0 0.00 0.00 0.00 43 1019.5
20260906091503 59 255 1.0 2.0 0.00 0.00 0.00 41 1019.4
20260906091403 59 254 1.0 2.0 0.00 0.00 0.00 42 1019.5
20260906091303 59 252 1.0 2.0 0.00 0.00 0.00 41 1019.5
20260906091103 59 253 1.0 2.0 0.00 0.00 0.00 41 1019.4
20260906091003 59 255 1.0 2.0 0.00 0.00 0.00 41 1019.4
20260906090903 60 251 1.0 2.0 0.00 0.00 0.00 41 1019.4
20260906090703 60 250 1.0 2.0 0.00 0.00 0.00 41 1019.4
20260906090603 60 250 1.0 2.0 0.00 0.00 0.00 40 1019.3
20260906090503 60 252 1.0 2.0 0.00 0.00 0.00 39 1019.3
20260906090403 60 252 1.0 2.0 0.00 0.00 0.00 39 1019.3
20260906090304 60 254 1.0 2.0 0.00 0.00 0.00 39 1019.4
20260906090103 60 258 2.0 3.0 0.00 0.00 0.00 39 1019.4
20260906085903 60 264 2.0 3.0 0.00 0.00 0.00 40 1019.3
20260906085703 60 257 2.0 3.0 0.00 0.00 0.00 39 1019.3
20260906085603 60 253 2.0 3.0 0.00 0.00 0.00 38 1019.3
20260906085403 60 248 2.0 3.0 0.00 0.00 0.00 38 1019.3
20260906085306 60 245 2.0 3.0 0.00 0.00 0.00 40 1019.3
20260906085203 60 245 2.0 3.0 0.00 0.00 0.00 40 1019.3
20260906085103 60 242 2.0 3.0 0.00 0.00 0.00 40 1019.3
20260906085004 60 240 2.0 3.0 0.00 0.00 0.00 39 1019.3
20260906084903 60 240 2.0 3.0 0.00 0.00 0.00 38 1019.3
20260906084803 60 242 2.0 3.0 0.00 0.00 0.00 39 1019.3
20260906084703 60 245 2.0 3.0 0.00 0.00 0.00 39 1019.3
20260906084603 60 247 2.0 3.0 0.00 0.00 0.00 38 1019.3
20260906084503 61 249 2.0 3.0 0.00 0.00 0.00 38 1019.3
20260906084203 61 251 1.0 3.0 0.00 0.00 0.00 37 1019.3
20260906084103 61 251 1.0 3.0 0.00 0.00 0.00 37 1019.3
20260906084003 61 251 1.0 3.0 0.00 0.00 0.00 38 1019.3
20260906083903 60 250 1.0 3.0 0.00 0.00 0.00 38 1019.3
20260906083803 60 249 1.0 3.0 0.00 0.00 0.00 39 1019.2
20260906083703 60 248 1.0 3.0 0.00 0.00 0.00 39 1019.2
20260906083603 60 248 1.0 3.0 0.00 0.00 0.00 39 1019.3
20260906083503 60 248 1.0 3.0 0.00 0.00 0.00 39 1019.2
20260906083403 60 249 1.0 2.0 0.00 0.00 0.00 39 1019.2
20260906083103 60 248 1.0 2.0 0.00 0.00 0.00 39 1019.3
20260906083004 60 250 1.0 2.0 0.00 0.00 0.00 39 1019.3
20260906082903 60 252 1.0 2.0 0.00 0.00 0.00 38 1019.3
20260906082803 60 254 1.0 2.0 0.00 0.00 0.00 38 1019.3
20260906082703 60 254 1.0 2.0 0.00 0.00 0.00 39 1019.3
20260906082603 60 250 1.0 3.0 0.00 0.00 0.00 38 1019.2
20260906082503 60 249 2.0 3.0 0.00 0.00 0.00 39 1019.2
20260906082403 60 248 2.0 3.0 0.00 0.00 0.00 39 1019.2
20260906082305 60 249 2.0 3.0 0.00 0.00 0.00 40 1019.2
20260906082203 60 252 2.0 3.0 0.00 0.00 0.00 40 1019.3
20260906082003 60 253 2.0 3.0 0.00 0.00 0.00 39 1019.2
20260906081903 60 252 2.0 3.0 0.00 0.00 0.00 39 1019.3
20260906081703 60 245 1.0 3.0 0.00 0.00 0.00 39 1019.3
20260906081604 60 246 1.0 3.0 0.00 0.00 0.00 39 1019.3
20260906081503 60 244 1.0 2.0 0.00 0.00 0.00 39 1019.3
20260906081403 61 242 1.0 2.0 0.00 0.00 0.00 38 1019.3
20260906081303 61 241 1.0 2.0 0.00 0.00 0.00 38 1019.3
20260906081203 61 241 1.0 2.0 0.00 0.00 0.00 38 1019.3
20260906081003 61 236 1.0 2.0 0.00 0.00 0.00 37 1019.4
20260906080904 61 233 1.0 2.0 0.00 0.00 0.00 38 1019.3
20260906080803 61 233 1.0 2.0 0.00 0.00 0.00 38 1019.3
20260906080703 60 234 1.0 2.0 0.00 0.00 0.00 38 1019.4
20260906080603 61 234 1.0 2.0 0.00 0.00 0.00 38 1019.4
20260906080503 61 236 1.0 2.0 0.00 0.00 0.00 38 1019.4
20260906080403 61 246 1.0 2.0 0.00 0.00 0.00 38 1019.4
20260906080303 61 255 1.0 1.0 0.00 0.00 0.00 37 1019.5
20260906080103 61 243 1.0 1.0 0.00 0.00 0.00 38 1019.3
20260906075903 61 241 1.0 1.0 0.00 0.00 0.00 37 1019.4
20260906075703 61 243 1.0 1.0 0.00 0.00 0.00 37 1019.4
20260906075603 61 246 1.0 3.0 0.00 0.00 0.00 37 1019.4
20260906075503 61 248 1.0 3.0 0.00 0.00 0.00 37 1019.5
20260906075403 61 250 1.0 4.0 0.00 0.00 0.00 37 1019.4
20260906075306 61 250 2.0 4.0 0.00 0.00 0.00 37 1019.5
20260906075203 61 252 2.0 4.0 0.00 0.00 0.00 38 1019.4
20260906075103 61 254 2.0 4.0 0.00 0.00 0.00 38 1019.4
20260906074903 61 254 2.0 4.0 0.00 0.00 0.00 38 1019.4
20260906074803 61 254 2.0 4.0 0.00 0.00 0.00 38 1019.5
20260906074603 61 253 2.0 4.0 0.00 0.00 0.00 38 1019.5
20260906074503 61 252 2.0 4.0 0.00 0.00 0.00 38 1019.5
20260906074403 61 251 1.0 3.0 0.00 0.00 0.00 38 1019.5
20260906074303 61 251 1.0 3.0 0.00 0.00 0.00 38 1019.5
20260906074203 61 252 1.0 3.0 0.00 0.00 0.00 38 1019.5
20260906074103 61 253 1.0 3.0 0.00 0.00 0.00 37 1019.5
20260906073903 61 253 0.0 3.0 0.00 0.00 0.00 38 1019.5
20260906073803 61 253 0.0 3.0 0.00 0.00 0.00 38 1019.5
20260906073703 61 252 0.0 3.0 0.00 0.00 0.00 38 1019.5
20260906073603 60 254 0.0 2.0 0.00 0.00 0.00 38 1019.5
20260906073503 60 256 0.0 2.0 0.00 0.00 0.00 38 1019.5
20260906073404 60 0 0.0 2.0 0.00 0.00 0.00 39 1019.5
20260906073303 60 0 0.0 2.0 0.00 0.00 0.00 39 1019.5
20260906073203 61 0 0.0 2.0 0.00 0.00 0.00 39 1019.5
20260906073103 61 0 0.0 1.0 0.00 0.00 0.00 38 1019.5
20260906073004 61 247 0.0 1.0 0.00 0.00 0.00 38 1019.5
20260906072903 61 252 0.0 1.0 0.00 0.00 0.00 37 1019.5
20260906072803 61 265 0.0 1.0 0.00 0.00 0.00 37 1019.5
20260906072703 61 265 0.0 1.0 0.00 0.00 0.00 38 1019.5
20260906072604 61 265 1.0 1.0 0.00 0.00 0.00 38 1019.5
20260906072503 60 0 1.0 0.0 0.00 0.00 0.00 38 1019.5
20260906072403 60 265 1.0 1.0 0.00 0.00 0.00 37 1019.5
20260906072306 60 265 1.0 1.0 0.00 0.00 0.00 37 1019.5
20260906072203 60 263 1.0 2.0 0.00 0.00 0.00 38 1019.5
20260906072103 61 259 1.0 2.0 0.00 0.00 0.00 39 1019.5
20260906072003 61 255 1.0 2.0 0.00 0.00 0.00 38 1019.5
20260906071903 61 255 1.0 2.0 0.00 0.00 0.00 38 1019.5
20260906071803 61 254 1.0 2.0 0.00 0.00 0.00 38 1019.4
20260906071703 61 250 1.0 2.0 0.00 0.00 0.00 38 1019.4
20260906071603 61 249 1.0 2.0 0.00 0.00 0.00 38 1019.5
20260906071503 61 249 1.0 2.0 0.00 0.00 0.00 38 1019.5
20260906071403 61 247 1.0 2.0 0.00 0.00 0.00 38 1019.5
20260906071303 61 245 1.0 2.0 0.00 0.00 0.00 37 1019.5
20260906071203 61 243 1.0 2.0 0.00 0.00 0.00 37 1019.5
20260906071103 61 245 1.0 2.0 0.00 0.00 0.00 37 1019.5
20260906071003 61 250 1.0 2.0 0.00 0.00 0.00 38 1019.4
20260906070903 61 252 1.0 2.0 0.00 0.00 0.00 38 1019.4
20260906070803 61 252 1.0 2.0 0.00 0.00 0.00 38 1019.5
20260906070704 62 255 1.0 2.0 0.00 0.00 0.00 37 1019.4
20260906070603 61 256 1.0 2.0 0.00 0.00 0.00 36 1019.5
20260906070503 61 256 2.0 2.0 0.00 0.00 0.00 36 1019.5
20260906070403 61 254 2.0 2.0 0.00 0.00 0.00 38 1019.4
20260906070203 61 263 2.0 3.0 0.00 0.00 0.00 37 1019.4
20260906070104 61 263 1.0 3.0 0.00 0.00 0.00 37 1019.4
20260906070003 61 261 1.0 3.0 0.00 0.00 0.00 37 1019.4
20260906065903 61 261 1.0 3.0 0.00 0.00 0.00 37 1019.4
20260906065803 61 263 1.0 3.0 0.00 0.00 0.00 37 1019.4
20260906065703 62 264 1.0 3.0 0.00 0.00 0.00 37 1019.3
20260906065603 62 266 1.0 3.0 0.00 0.00 0.00 37 1019.3
20260906065503 62 269 1.0 3.0 0.00 0.00 0.00 38 1019.3
20260906065403 62 271 1.0 3.0 0.00 0.00 0.00 36 1019.4
20260906065305 62 270 1.0 3.0 0.00 0.00 0.00 36 1019.4
20260906065204 62 268 1.0 2.0 0.00 0.00 0.00 36 1019.4
20260906065003 61 270 1.0 2.0 0.00 0.00 0.00 37 1019.3
20260906064802 61 272 1.0 2.0 0.00 0.00 0.00 37 1019.4
20260906064703 61 272 1.0 2.0 0.00 0.00 0.00 37 1019.3
20260906064603 61 270 1.0 1.0 0.00 0.00 0.00 38 1019.3
20260906064502 61 270 1.0 1.0 0.00 0.00 0.00 38 1019.4
20260906064403 60 271 1.0 1.0 0.00 0.00 0.00 38 1019.3
20260906064303 60 275 2.0 3.0 0.00 0.00 0.00 39 1019.3
20260906064203 60 280 2.0 3.0 0.00 0.00 0.00 38 1019.3
20260906064103 60 281 2.0 3.0 0.00 0.00 0.00 38 1019.3
20260906064003 60 282 2.0 3.0 0.00 0.00 0.00 39 1019.2
20260906063903 61 283 2.0 3.0 0.00 0.00 0.00 38 1019.3
20260906063803 61 283 2.0 3.0 0.00 0.00 0.00 38 1019.3
20260906063703 61 284 2.0 3.0 0.00 0.00 0.00 38 1019.2
20260906063603 61 284 1.0 3.0 0.00 0.00 0.00 38 1019.3
20260906063503 61 283 1.0 3.0 0.00 0.00 0.00 38 1019.2
20260906063403 61 283 1.0 3.0 0.00 0.00 0.00 37 1019.2
20260906063303 61 283 1.0 3.0 0.00 0.00 0.00 37 1019.2
20260906063104 61 282 1.0 3.0 0.00 0.00 0.00 38 1019.1
20260906063003 61 281 1.0 3.0 0.00 0.00 0.00 38 1019.1
20260906062903 61 279 2.0 3.0 0.00 0.00 0.00 38 1019.1
20260906062803 61 276 2.0 3.0 0.00 0.00 0.00 38 1019.2
20260906062704 61 272 2.0 3.0 0.00 0.00 0.00 38 1019.2
20260906062603 61 264 2.0 4.0 0.00 0.00 0.00 38 1019.2
20260906062503 61 252 2.0 4.0 0.00 0.00 0.00 38 1019.1
20260906062403 61 253 2.0 4.0 0.00 0.00 0.00 37 1019.2
20260906062306 61 252 2.0 4.0 0.00 0.00 0.00 36 1019.2
20260906062203 61 251 2.0 4.0 0.00 0.00 0.00 37 1019.1
20260906062103 60 252 2.0 4.0 0.00 0.00 0.00 38 1019.1
20260906062003 60 253 2.0 4.0 0.00 0.00 0.00 39 1019.0
20260906061903 60 252 2.0 4.0 0.00 0.00 0.00 39 1019.1
20260906061703 60 246 2.0 4.0 0.00 0.00 0.00 39 1019.1
20260906061603 61 245 2.0 4.0 0.00 0.00 0.00 38 1019.0
20260906061502 60 247 2.0 4.0 0.00 0.00 0.00 38 1019.1
20260906061403 60 246 2.0 4.0 0.00 0.00 0.00 38 1019.1
20260906061203 60 250 2.0 3.0 0.00 0.00 0.00 39 1019.0
20260906061103 60 251 1.0 3.0 0.00 0.00 0.00 39 1019.0
20260906061003 60 258 1.0 3.0 0.00 0.00 0.00 40 1019.0
20260906060903 60 266 1.0 3.0 0.00 0.00 0.00 41 1019.0
20260906060803 60 280 1.0 3.0 0.00 0.00 0.00 41 1019.0
20260906060603 60 296 1.0 3.0 0.00 0.00 0.00 41 1019.0
20260906060503 61 296 1.0 3.0 0.00 0.00 0.00 40 1019.0
20260906060403 61 300 0.0 3.0 0.00 0.00 0.00 40 1019.0
20260906060203 62 311 0.0 3.0 0.00 0.00 0.00 37 1018.9
20260906060103 62 312 0.0 3.0 0.00 0.00 0.00 37 1018.9
20260906060004 62 313 0.0 3.0 0.00 0.00 0.00 36 1018.9
20260906055903 62 0 0.0 3.0 0.00 0.00 0.00 37 1018.9
20260906055803 62 0 0.0 3.0 0.00 0.00 0.00 36 1018.9
20260906055703 65 0 0.0 0.0 0.00 0.00 0.00 33 1018.9
20260906055603 65 0 0.0 0.0 0.00 0.00 0.00 33 1018.8
20260906055504 66 0 0.0 0.0 0.00 0.00 0.00 32 1018.8
20260906055403 66 0 0.0 0.0 0.00 0.00 0.00 30 1018.9
20260906055306 66 0 0.0 0.0 0.00 0.00 0.00 30 1018.9
20260906055104 66 0 0.0 0.0 0.00 0.00 0.00 31 1018.8
20260906055003 66 0 0.0 0.0 0.00 0.00 0.00 30 1018.9
20260906054803 66 0 0.0 0.0 0.00 0.00 0.00 30 1018.9
20260906054703 66 0 0.0 0.0 0.00 0.00 0.00 30 1018.8
20260906054603 66 0 0.0 0.0 0.00 0.00 0.00 30 1018.8
20260906054403 66 0 0.0 0.0 0.00 0.00 0.00 30 1018.8
20260906054303 66 0 0.0 0.0 0.00 0.00 0.00 30 1018.8
20260906054203 66 0 0.0 0.0 0.00 0.00 0.00 30 1018.8
20260906054003 66 0 0.0 0.0 0.00 0.00 0.00 30 1018.8
20260906053903 66 0 0.0 0.0 0.00 0.00 0.00 30 1018.8
20260906053803 66 0 0.0 0.0 0.00 0.00 0.00 30 1018.7
20260906053703 66 0 0.0 0.0 0.00 0.00 0.00 30 1018.7
20260906053603 66 0 0.0 0.0 0.00 0.00 0.00 30 1018.7
20260906053503 66 0 0.0 0.0 0.00 0.00 0.00 30 1018.7
20260906053403 66 0 0.0 0.0 0.00 0.00 0.00 30 1018.7
20260906053303 66 0 0.0 0.0 0.00 0.00 0.00 30 1018.7
20260906053203 66 0 0.0 0.0 0.00 0.00 0.00 30 1018.7
20260906052903 67 0 0.0 0.0 0.00 0.00 0.00 29 1019.2
20260906052803 67 0 0.0 0.0 0.00 0.00 0.00 29 1019.1
20260906052603 67 0 0.0 0.0 0.00 0.00 0.00 29 1019.1
20260906052503 67 0 0.0 0.0 0.00 0.00 0.00 29 1019.1
20260906052403 68 0 0.0 0.0 0.00 0.00 0.00 28 1019.1
20260906052305 68 0 0.0 0.0 0.00 0.00 0.00 28 1019.1
20260906052103 68 0 0.0 0.0 0.00 0.00 0.00 28 1019.1
20260906051904 69 0 0.0 0.0 0.00 0.00 0.00 27 1019.1
20260906051803 70 0 0.0 0.0 0.00 0.00 0.00 27 1019.1
20260906051703 70 0 0.0 0.0 0.00 0.00 0.00 26 1019.2
20260906051604 70 0 0.0 0.0 0.00 0.00 0.00 26 1019.2
20260906051403 71 0 0.0 0.0 0.00 0.00 0.00 25 1019.2
20260906051303 71 0 0.0 0.0 0.00 0.00 0.00 25 1019.2
20260906051103 71 0 0.0 0.0 0.00 0.00 0.00 24 1019.2
20260906051003 72 0 0.0 0.0 0.00 0.00 0.00 24 1019.2
20260906050903 72 0 0.0 0.0 0.00 0.00 0.00 24 1019.1
20260906050802 72 0 0.0 0.0 0.00 0.00 0.00 24 1019.2
20260906050703 72 0 0.0 0.0 0.00 0.00 0.00 24 1019.2
20260906050503 72 0 0.0 0.0 0.00 0.00 0.00 24 1019.2
20260906050403 72 0 0.0 0.0 0.00 0.00 0.00 24 1019.2
20260906050303 72 0 0.0 0.0 0.00 0.00 0.00 24 1019.2
20260906050203 72 0 0.0 0.0 0.00 0.00 0.00 24 1019.2
20260906050004 72 0 0.0 0.0 0.00 0.00 0.00 24 1019.2
20260906045903 72 0 0.0 0.0 0.00 0.00 0.00 24 1019.2
20260906045803 72 0 0.0 0.0 0.00 0.00 0.00 24 1019.3
20260906045703 72 0 0.0 0.0 0.00 0.00 0.00 24 1019.2
20260906045503 72 0 0.0 0.0 0.00 0.00 0.00 24 1019.3
20260906045403 72 0 0.0 0.0 0.00 0.00 0.00 24 1019.3
20260906045305 72 0 0.0 0.0 0.00 0.00 0.00 24 1019.3
20260906045203 72 0 0.0 0.0 0.00 0.00 0.00 24 1019.3
20260906045103 72 0 0.0 0.0 0.00 0.00 0.00 24 1019.3
20260906044904 72 0 0.0 0.0 0.00 0.00 0.00 24 1019.3
20260906044703 72 0 0.0 0.0 0.00 0.00 0.00 24 1019.3
20260906044603 72 0 0.0 0.0 0.00 0.00 0.00 24 1019.3
20260906044503 72 0 0.0 0.0 0.00 0.00 0.00 24 1019.3
20260906044303 72 0 0.0 0.0 0.00 0.00 0.00 24 1019.3
20260906044204 72 0 0.0 0.0 0.00 0.00 0.00 24 1019.3
20260906044103 72 0 0.0 0.0 0.00 0.00 0.00 24 1019.3
20260906044003 72 0 0.0 0.0 0.00 0.00 0.00 24 1019.2
20260906043903 72 0 0.0 0.0 0.00 0.00 0.00 23 1019.2
20260906043803 72 0 0.0 0.0 0.00 0.00 0.00 24 1019.3
20260906043703 72 0 0.0 0.0 0.00 0.00 0.00 24 1019.3
20260906043603 72 0 0.0 0.0 0.00 0.00 0.00 23 1019.2
20260906043503 72 0 0.0 0.0 0.00 0.00 0.00 23 1019.2
20260906043403 72 0 0.0 0.0 0.00 0.00 0.00 24 1019.3
20260906043303 72 0 0.0 0.0 0.00 0.00 0.00 23 1019.2
20260906043104 72 0 0.0 0.0 0.00 0.00 0.00 23 1019.2
20260906042903 72 0 0.0 0.0 0.00 0.00 0.00 23 1019.2
20260906042802 72 0 0.0 0.0 0.00 0.00 0.00 23 1019.2
20260906042703 72 0 0.0 0.0 0.00 0.00 0.00 23 1019.3
20260906042603 72 0 0.0 0.0 0.00 0.00 0.00 23 1019.3
20260906042503 73 0 0.0 0.0 0.00 0.00 0.00 23 1019.3
20260906042403 73 0 0.0 0.0 0.00 0.00 0.00 23 1019.3
20260906042203 73 0 0.0 0.0 0.00 0.00 0.00 22 1019.2
20260906042104 73 0 0.0 0.0 0.00 0.00 0.00 23 1019.2
20260906041903 73 0 0.0 0.0 0.00 0.00 0.00 23 1019.3
20260906041803 73 0 0.0 0.0 0.00 0.00 0.00 22 1019.2
20260906041704 73 0 0.0 0.0 0.00 0.00 0.00 23 1019.3
20260906041603 73 0 0.0 0.0 0.00 0.00 0.00 22 1019.3
20260906041503 73 0 0.0 0.0 0.00 0.00 0.00 23 1019.2
20260906041303 73 0 0.0 0.0 0.00 0.00 0.00 22 1019.2
20260906041203 73 0 0.0 0.0 0.00 0.00 0.00 22 1019.2
20260906041103 73 0 0.0 0.0 0.00 0.00 0.00 22 1019.1
20260906041003 73 0 0.0 0.0 0.00 0.00 0.00 23 1019.2
20260906040903 73 0 0.0 0.0 0.00 0.00 0.00 22 1019.2
20260906040703 73 0 0.0 0.0 0.00 0.00 0.00 22 1019.1
20260906040603 73 0 0.0 0.0 0.00 0.00 0.00 22 1019.1
20260906040503 73 0 0.0 0.0 0.00 0.00 0.00 22 1019.2
20260906040403 73 0 0.0 0.0 0.00 0.00 0.00 22 1019.1
20260906040303 73 0 0.0 0.0 0.00 0.00 0.00 22 1019.1
20260906040203 73 0 0.0 0.0 0.00 0.00 0.00 22 1019.1
20260906040103 73 0 0.0 0.0 0.00 0.00 0.00 22 1019.1
20260906040003 73 0 0.0 0.0 0.00 0.00 0.00 22 1019.1
20260906035903 73 0 0.0 0.0 0.00 0.00 0.00 22 1019.1
20260906035703 73 0 0.0 0.0 0.00 0.00 0.00 22 1019.0
20260906035603 73 0 0.0 0.0 0.00 0.00 0.00 22 1019.1
20260906035503 73 0 0.0 0.0 0.00 0.00 0.00 22 1019.1
20260906035403 73 0 0.0 0.0 0.00 0.00 0.00 22 1019.1
20260906035306 73 0 0.0 0.0 0.00 0.00 0.00 22 1019.1
20260906035203 73 0 0.0 0.0 0.00 0.00 0.00 22 1019.1
20260906035103 73 0 0.0 0.0 0.00 0.00 0.00 22 1019.0
20260906035003 73 0 0.0 0.0 0.00 0.00 0.00 22 1019.1
20260906034903 73 0 0.0 0.0 0.00 0.00 0.00 21 1018.9
20260906034802 73 0 0.0 0.0 0.00 0.00 0.00 22 1019.0
20260906034503 73 0 0.0 0.0 0.00 0.00 0.00 22 1019.0
20260906034303 73 0 0.0 0.0 0.00 0.00 0.00 22 1019.0
20260906034203 73 0 0.0 0.0 0.00 0.00 0.00 21 1018.9
20260906034103 73 0 0.0 0.0 0.00 0.00 0.00 22 1019.0
20260906034004 73 0 0.0 0.0 0.00 0.00 0.00 21 1018.9
20260906033903 73 0 0.0 0.0 0.00 0.00 0.00 21 1018.9
20260906033803 73 0 0.0 0.0 0.00 0.00 0.00 22 1019.0
20260906033704 73 0 0.0 0.0 0.00 0.00 0.00 22 1019.0
20260906033603 73 0 0.0 0.0 0.00 0.00 0.00 22 1019.1
20260906033503 73 0 0.0 0.0 0.00 0.00 0.00 21 1019.0
20260906033402 73 0 0.0 0.0 0.00 0.00 0.00 21 1018.9
20260906033303 73 0 0.0 0.0 0.00 0.00 0.00 21 1018.9
20260906033203 73 0 0.0 0.0 0.00 0.00 0.00 21 1018.8
20260906033103 73 0 0.0 0.0 0.00 0.00 0.00 21 1018.9
20260906033004 73 0 0.0 0.0 0.00 0.00 0.00 21 1018.8
20260906032903 73 0 0.0 0.0 0.00 0.00 0.00 21 1018.8
20260906032803 74 0 0.0 0.0 0.00 0.00 0.00 21 1018.9
20260906032703 74 0 0.0 0.0 0.00 0.00 0.00 21 1018.9
20260906032604 74 0 0.0 0.0 0.00 0.00 0.00 21 1018.9
20260906032403 74 0 0.0 0.0 0.00 0.00 0.00 21 1018.9
20260906032305 74 0 0.0 0.0 0.00 0.00 0.00 21 1018.9
20260906032202 74 0 0.0 0.0 0.00 0.00 0.00 21 1018.8
20260906032003 74 0 0.0 0.0 0.00 0.00 0.00 21 1018.9
20260906031903 74 0 0.0 0.0 0.00 0.00 0.00 21 1018.8
20260906031803 74 0 0.0 0.0 0.00 0.00 0.00 21 1018.9
20260906031703 74 0 0.0 0.0 0.00 0.00 0.00 21 1018.8
20260906031503 74 0 0.0 0.0 0.00 0.00 0.00 21 1018.9
20260906031403 74 0 0.0 0.0 0.00 0.00 0.00 21 1018.8
20260906031303 74 0 0.0 0.0 0.00 0.00 0.00 21 1018.8
20260906031203 74 0 0.0 0.0 0.00 0.00 0.00 21 1018.7
20260906031103 74 0 0.0 0.0 0.00 0.00 0.00 20 1018.7
20260906030903 74 0 0.0 0.0 0.00 0.00 0.00 20 1018.6
20260906030804 74 0 0.0 3.0 0.00 0.00 0.00 20 1018.5
20260906030703 74 0 0.0 4.0 0.00 0.00 0.00 21 1018.6
20260906030603 74 0 0.0 4.0 0.00 0.00 0.00 21 1018.6
20260906030504 74 0 0.0 4.0 0.00 0.00 0.00 21 1018.7
20260906030403 74 0 0.0 4.0 0.00 0.00 0.00 21 1018.7
20260906030303 74 0 0.0 4.0 0.00 0.00 0.00 21 1018.6
20260906030203 74 0 0.0 4.0 0.00 0.00 0.00 21 1018.7
20260906030003 74 0 0.0 4.0 0.00 0.00 0.00 21 1018.6
20260906025903 74 0 0.0 4.0 0.00 0.00 0.00 21 1018.6
20260906025803 74 0 0.0 4.0 0.00 0.00 0.00 21 1018.6
20260906025703 74 0 0.0 1.0 0.00 0.00 0.00 21 1018.5
20260906025503 74 0 0.0 1.0 0.00 0.00 0.00 21 1018.5
20260906025403 74 0 0.0 0.0 0.00 0.00 0.00 21 1018.5
20260906025306 74 0 0.0 0.0 0.00 0.00 0.00 22 1018.6
20260906025103 74 0 0.0 0.0 0.00 0.00 0.00 22 1018.6
20260906025003 74 0 0.0 0.0 0.00 0.00 0.00 21 1018.5
20260906024903 74 0 0.0 0.0 0.00 0.00 0.00 21 1018.4
20260906024803 74 0 0.0 0.0 0.00 0.00 0.00 22 1018.5
20260906024703 74 0 0.0 0.0 0.00 0.00 0.00 21 1018.5
20260906024603 74 0 0.0 0.0 0.00 0.00 0.00 22 1018.4
20260906024403 74 0 0.0 0.0 0.00 0.00 0.00 22 1018.3
20260906024303 74 0 0.0 0.0 0.00 0.00 0.00 22 1018.4
20260906024203 74 0 0.0 0.0 0.00 0.00 0.00 22 1018.3
20260906024103 73 0 0.0 0.0 0.00 0.00 0.00 23 1018.4
20260906023903 73 0 0.0 0.0 0.00 0.00 0.00 23 1018.4
20260906023803 73 0 0.0 0.0 0.00 0.00 0.00 23 1018.4
20260906023703 73 0 0.0 0.0 0.00 0.00 0.00 24 1018.3
20260906023603 73 0 0.0 0.0 0.00 0.00 0.00 24 1018.3
20260906023503 73 0 0.0 0.0 0.00 0.00 0.00 24 1018.3
20260906023403 72 0 0.0 0.0 0.00 0.00 0.00 25 1018.2
20260906023303 72 0 0.0 0.0 0.00 0.00 0.00 25 1018.2
20260906022903 72 0 0.0 0.0 0.00 0.00 0.00 26 1018.1
20260906022803 72 0 0.0 0.0 0.00 0.00 0.00 26 1018.1
20260906022703 72 0 0.0 0.0 0.00 0.00 0.00 26 1018.1
20260906022503 73 0 0.0 0.0 0.00 0.00 0.00 26 1018.2
20260906022306 73 0 0.0 0.0 0.00 0.00 0.00 26 1018.2
20260906022203 74 0 0.0 0.0 0.00 0.00 0.00 25 1018.1
20260906022103 74 0 0.0 0.0 0.00 0.00 0.00 25 1018.1
20260906022004 74 0 0.0 0.0 0.00 0.00 0.00 24 1018.1
20260906021903 75 0 0.0 0.0 0.00 0.00 0.00 25 1018.1
20260906021803 75 0 0.0 0.0 0.00 0.00 0.00 24 1018.1
20260906021703 75 0 1.0 0.0 0.00 0.00 0.00 24 1018.1
20260906021603 76 172 1.0 2.0 0.00 0.00 0.00 23 1018.0
20260906021503 76 172 1.0 2.0 0.00 0.00 0.00 22 1018.1
20260906021303 76 171 1.0 2.0 0.00 0.00 0.00 22 1018.0
20260906021203 77 174 2.0 2.0 0.00 0.00 0.00 22 1018.0
20260906021003 77 178 2.0 9.0 0.00 0.00 0.00 21 1018.1
20260906020903 77 179 2.0 9.0 0.00 0.00 0.00 21 1018.0
20260906020703 77 178 1.0 9.0 0.00 0.00 0.00 20 1018.1
20260906020603 78 179 1.0 9.0 0.00 0.00 0.00 20 1018.1
20260906020503 78 179 1.0 9.0 0.00 0.00 0.00 20 1018.1
20260906020403 78 179 1.0 9.0 0.00 0.00 0.00 20 1018.0
20260906020203 78 179 0.0 9.0 0.00 0.00 0.00 20 1018.0
20260906020003 77 179 0.0 7.0 0.00 0.00 0.00 20 1018.0
20260906015903 77 0 0.0 7.0 0.00 0.00 0.00 20 1018.1
20260906015803 77 0 0.0 7.0 0.00 0.00 0.00 20 1018.1
20260906015503 78 0 0.0 0.0 0.00 0.00 0.00 21 1018.0
20260906015403 78 0 0.0 0.0 0.00 0.00 0.00 22 1018.0
20260906015306 78 0 0.0 0.0 0.00 0.00 0.00 21 1018.0
20260906015203 78 0 0.0 0.0 0.00 0.00 0.00 22 1018.0
20260906015003 78 0 0.0 0.0 0.00 0.00 0.00 23 1018.1
20260906014904 78 0 0.0 0.0 0.00 0.00 0.00 22 1018.0
20260906014803 78 0 0.0 0.0 0.00 0.00 0.00 22 1018.0
20260906014703 78 0 0.0 0.0 0.00 0.00 0.00 23 1018.0
20260906014603 78 0 0.0 0.0 0.00 0.00 0.00 23 1018.0
20260906014503 78 0 0.0 0.0 0.00 0.00 0.00 24 1018.0
20260906014403 78 0 0.0 0.0 0.00 0.00 0.00 24 1018.0
20260906014303 78 0 0.0 0.0 0.00 0.00 0.00 24 1018.0
20260906014203 78 0 0.0 0.0 0.00 0.00 0.00 24 1018.0
20260906014103 78 0 0.0 0.0 0.00 0.00 0.00 24 1018.0
20260906014003 78 0 0.0 0.0 0.00 0.00 0.00 24 1018.0
20260906013904 78 0 0.0 0.0 0.00 0.00 0.00 24 1018.0
20260906013803 78 0 0.0 0.0 0.00 0.00 0.00 24 1018.0
20260906013703 78 0 0.0 0.0 0.00 0.00 0.00 24 1018.0
20260906013603 78 0 0.0 0.0 0.00 0.00 0.00 24 1018.0
20260906013503 78 0 0.0 0.0 0.00 0.00 0.00 24 1018.0
20260906013403 78 0 0.0 0.0 0.00 0.00 0.00 24 1018.0
20260906013303 78 0 0.0 0.0 0.00 0.00 0.00 24 1018.0
20260906013103 78 0 0.0 0.0 0.00 0.00 0.00 24 1017.9
20260906013003 78 0 0.0 0.0 0.00 0.00 0.00 24 1018.0
20260906012903 78 0 0.0 0.0 0.00 0.00 0.00 24 1017.9
20260906012803 78 0 0.0 0.0 0.00 0.00 0.00 24 1018.0
20260906012703 78 0 0.0 0.0 0.00 0.00 0.00 24 1018.0
20260906012603 78 0 0.0 0.0 0.00 0.00 0.00 24 1018.0
20260906012403 78 0 0.0 0.0 0.00 0.00 0.00 24 1018.0
20260906012306 78 0 0.0 0.0 0.00 0.00 0.00 24 1018.0
20260906012103 78 0 0.0 0.0 0.00 0.00 0.00 24 1018.0
20260906012003 78 0 0.0 0.0 0.00 0.00 0.00 24 1018.0
20260906011903 78 0 0.0 0.0 0.00 0.00 0.00 24 1018.1
20260906011803 78 0 0.0 0.0 0.00 0.00 0.00 24 1018.1
20260906011704 78 0 0.0 0.0 0.00 0.00 0.00 24 1018.0
20260906011603 78 0 0.0 0.0 0.00 0.00 0.00 24 1018.0
20260906011503 78 0 0.0 0.0 0.00 0.00 0.00 24 1018.1
20260906011403 79 0 0.0 0.0 0.00 0.00 0.00 25 1018.2
20260906011103 79 0 0.0 0.0 0.00 0.00 0.00 25 1018.2
20260906011003 79 0 0.0 0.0 0.00 0.00 0.00 25 1018.2
20260906010803 79 0 0.0 0.0 0.00 0.00 0.00 25 1018.2
20260906010503 80 0 0.0 0.0 0.00 0.00 0.00 25 1018.3
20260906010403 80 0 0.0 0.0 0.00 0.00 0.00 24 1018.2
20260906010303 80 0 0.0 0.0 0.00 0.00 0.00 24 1018.2
20260906010203 80 0 0.0 6.0 0.00 0.00 0.00 24 1018.2
20260906005903 80 0 0.0 6.0 0.00 0.00 0.00 24 1018.3
20260906005603 80 0 0.0 6.0 0.00 0.00 0.00 24 1018.3
20260906005503 80 0 0.0 6.0 0.00 0.00 0.00 24 1018.2
20260906005404 80 0 0.0 6.0 0.00 0.00 0.00 24 1018.2
20260906005306 80 0 0.0 6.0 0.00 0.00 0.00 24 1018.2
20260906005203 80 0 0.0 0.0 0.00 0.00 0.00 24 1018.2
20260906005104 80 0 0.0 2.0 0.00 0.00 0.00 24 1018.2
20260906005003 81 0 0.0 4.0 0.00 0.00 0.00 24 1018.3
20260906004903 81 0 0.0 4.0 0.00 0.00 0.00 24 1018.3
20260906004803 81 0 0.0 4.0 0.00 0.00 0.00 24 1018.3
20260906004703 81 0 0.0 4.0 0.00 0.00 0.00 24 1018.3
20260906004503 81 0 0.0 4.0 0.00 0.00 0.00 24 1018.2
20260906004304 82 0 0.0 4.0 0.00 0.00 0.00 24 1018.3
20260906004103 82 0 0.0 4.0 0.00 0.00 0.00 24 1018.3
20260906003903 82 0 0.0 3.0 0.00 0.00 0.00 23 1018.3
20260906003803 82 0 0.0 2.0 0.00 0.00 0.00 23 1018.3
20260906003503 82 0 0.0 2.0 0.00 0.00 0.00 24 1018.2
20260906003304 82 0 0.0 2.0 0.00 0.00 0.00 24 1018.2
20260906003203 82 0 0.0 2.0 0.00 0.00 0.00 24 1018.2
20260906003003 82 0 0.0 2.0 0.00 0.00 0.00 24 1018.2
20260906002903 82 0 0.0 2.0 0.00 0.00 0.00 23 1018.3
20260906002803 82 0 0.0 2.0 0.00 0.00 0.00 23 1018.3
20260906002703 82 0 0.0 2.0 0.00 0.00 0.00 23 1018.4
20260906002604 82 0 0.0 2.0 0.00 0.00 0.00 23 1018.3
20260906002503 82 0 0.0 1.0 0.00 0.00 0.00 23 1018.3
20260906002403 82 0 0.0 1.0 0.00 0.00 0.00 23 1018.4
20260906002305 82 0 0.0 2.0 0.00 0.00 0.00 23 1018.4
20260906002203 82 0 0.0 2.0 0.00 0.00 0.00 23 1018.4
20260906002003 82 0 0.0 2.0 0.00 0.00 0.00 23 1018.4
20260906001903 82 0 0.0 2.0 0.00 0.00 0.00 23 1018.4
20260906001803 82 154 0.0 2.0 0.00 0.00 0.00 23 1018.4
20260906001703 82 154 0.0 2.0 0.00 0.00 0.00 23 1018.4
20260906001603 82 154 0.0 2.0 0.00 0.00 0.00 23 1018.4
20260906001503 82 154 0.0 2.0 0.00 0.00 0.00 23 1018.4
20260906001204 82 168 1.0 2.0 0.00 0.00 0.00 23 1018.4
20260906001103 82 182 1.0 1.0 0.00 0.00 0.00 23 1018.4
20260906001003 82 204 1.0 1.0 0.00 0.00 0.00 23 1018.4
20260906000903 82 184 2.0 1.0 0.00 0.00 0.00 23 1018.4
20260906000803 82 176 2.0 3.0 0.00 0.00 0.00 23 1018.4
20260906000703 82 181 2.0 9.0 0.00 0.00 0.00 23 1018.4
20260906000603 82 181 2.0 9.0 0.00 0.00 0.00 23 1018.4
20260906000503 82 191 3.0 11.0 0.00 0.00 0.00 23 1018.4
20260906000403 82 188 3.0 11.0 0.00 0.00 0.00 23 1018.4
20260906000303 82 185 2.0 11.0 0.00 0.00 0.00 23 1018.4
20260906000103 82 184 2.0 11.0 0.00 0.00 0.00 23 1018.4
20260906000003 82 184 2.0 11.0 0.00 0.00 0.00 23 1018.4
20260905235904 82 184 2.0 11.0 0.00 0.00 0.00 23 1018.3
20260905235803 82 184 1.0 11.0 0.00 0.00 0.00 23 1018.3
20260905235703 82 187 1.0 11.0 0.00 0.00 0.00 23 1018.3
20260905235603 82 187 1.0 11.0 0.00 0.00 0.00 23 1018.4
20260905235403 83 183 1.0 9.0 0.00 0.00 0.00 23 1018.4
20260905235306 83 188 1.0 9.0 0.00 0.00 0.00 23 1018.4
20260905235204 83 194 1.0 7.0 0.00 0.00 0.00 23 1018.4
20260905235103 83 200 1.0 7.0 0.00 0.00 0.00 22 1018.2
20260905234904 83 224 2.0 7.0 0.00 0.00 0.00 22 1018.3
20260905234803 83 181 2.0 7.0 0.00 0.00 0.00 22 1018.3
20260905234703 83 188 2.0 6.0 0.00 0.00 0.00 22 1018.3
20260905234604 83 203 3.0 8.0 0.00 0.00 0.00 22 1018.3
20260905234503 83 208 3.0 8.0 0.00 0.00 0.00 22 1018.3
20260905234403 83 207 3.0 8.0 0.00 0.00 0.00 23 1018.4
20260905234303 83 193 3.0 8.0 0.00 0.00 0.00 23 1018.4
20260905234203 82 193 4.0 8.0 0.00 0.00 0.00 23 1018.4
20260905234103 82 191 3.0 10.0 0.00 0.00 0.00 23 1018.4
20260905234004 82 191 3.0 10.0 0.00 0.00 0.00 23 1018.4
20260905233903 82 194 3.0 10.0 0.00 0.00 0.00 22 1018.3
20260905233803 82 198 3.0 10.0 0.00 0.00 0.00 23 1018.4
20260905233704 82 194 3.0 10.0 0.00 0.00 0.00 23 1018.4
20260905233603 82 188 2.0 10.0 0.00 0.00 0.00 23 1018.3
20260905233503 82 183 2.0 10.0 0.00 0.00 0.00 22 1018.3
20260905233403 82 183 1.0 10.0 0.00 0.00 0.00 22 1018.3
20260905233303 83 186 1.0 10.0 0.00 0.00 0.00 22 1018.4
20260905233203 83 183 1.0 10.0 0.00 0.00 0.00 22 1018.3
20260905233104 83 183 1.0 10.0 0.00 0.00 0.00 22 1018.3
20260905232903 83 174 0.0 10.0 0.00 0.00 0.00 22 1018.3
20260905232804 83 157 0.0 6.0 0.00 0.00 0.00 22 1018.3
20260905232603 83 155 1.0 6.0 0.00 0.00 0.00 22 1018.3
20260905232503 83 160 1.0 7.0 0.00 0.00 0.00 22 1018.4
20260905232403 83 151 2.0 7.0 0.00 0.00 0.00 22 1018.4
20260905232305 83 178 2.0 7.0 0.00 0.00 0.00 22 1018.4
20260905232203 83 240 2.0 9.0 0.00 0.00 0.00 22 1018.4
20260905231903 83 237 3.0 9.0 0.00 0.00 0.00 23 1018.4
20260905231803 83 198 4.0 12.0 0.00 0.00 0.00 23 1018.4
20260905231703 83 186 4.0 14.0 0.00 0.00 0.00 23 1018.4
20260905231504 83 179 4.0 16.0 0.00 0.00 0.00 23 1018.4
20260905231303 83 177 4.0 16.0 0.00 0.00 0.00 23 1018.4
20260905231003 83 186 3.0 16.0 0.00 0.00 0.00 23 1018.5
20260905230903 83 187 3.0 16.0 0.00 0.00 0.00 22 1018.3
20260905230803 83 189 2.0 16.0 0.00 0.00 0.00 22 1018.3
20260905230703 83 193 2.0 16.0 0.00 0.00 0.00 22 1018.3
20260905230603 83 206 2.0 12.0 0.00 0.00 0.00 22 1018.3
20260905230303 83 208 2.0 12.0 0.00 0.00 0.00 21 1018.2